<?xml version="1.0" encoding="UTF-8" standalone="no" ?>
<gpx xmlns="http://www.topografix.com/GPX/1/1" creator="MapSource 6.12.4" version="1.1" xmlns:xsi="http://www.w3.org/2001/XMLSchema-instance" xsi:schemaLocation="http://www.topografix.com/GPX/1/1 http://www.topografix.com/GPX/1/1/gpx.xsd">

  <metadata>
    <link href="http://www.garmin.com">
      <text>Garmin International</text>
    </link>
    <time>2008-09-14T12:26:47Z</time>
    <bounds maxlat="36.4833300" maxlon="137.5447800" minlat="36.4488760" minlon="137.4739040"/>
  </metadata>

  <trk>
    <name>yakushi</name>
    <extensions>
      <gpxx:TrackExtension xmlns:gpxx="http://www.garmin.com/xmlschemas/GpxExtensions/v3" xmlns:xsi="http://www.w3.org/2001/XMLSchema-instance" xsi:schemaLocation="http://www.garmin.com/xmlschemas/GpxExtensions/v3 http://www.garmin.com/xmlschemas/GpxExtensions/v3/GpxExtensionsv3.xsd">
        <gpxx:DisplayColor>White</gpxx:DisplayColor>
      </gpxx:TrackExtension>
    </extensions>
    <trkseg>
      <trkpt lat="36.4832930" lon="137.4739520">
        <ele>1365.1990000</ele>
        <time>2008-09-12T03:08:02Z</time>
      </trkpt>
      <trkpt lat="36.4832900" lon="137.4739730">
        <ele>1366.4390000</ele>
        <time>2008-09-12T03:08:24Z</time>
      </trkpt>
      <trkpt lat="36.4833020" lon="137.4739500">
        <ele>1365.8930000</ele>
        <time>2008-09-12T03:08:44Z</time>
      </trkpt>
      <trkpt lat="36.4833060" lon="137.4739500">
        <ele>1365.8120000</ele>
        <time>2008-09-12T03:09:04Z</time>
      </trkpt>
      <trkpt lat="36.4833100" lon="137.4739500">
        <ele>1367.1480000</ele>
        <time>2008-09-12T03:09:24Z</time>
      </trkpt>
      <trkpt lat="36.4833140" lon="137.4739450">
        <ele>1367.1140000</ele>
        <time>2008-09-12T03:09:44Z</time>
      </trkpt>
      <trkpt lat="36.4833140" lon="137.4739420">
        <ele>1366.5280000</ele>
        <time>2008-09-12T03:10:04Z</time>
      </trkpt>
      <trkpt lat="36.4833060" lon="137.4739450">
        <ele>1366.4040000</ele>
        <time>2008-09-12T03:10:24Z</time>
      </trkpt>
      <trkpt lat="36.4833050" lon="137.4739470">
        <ele>1366.4620000</ele>
        <time>2008-09-12T03:10:44Z</time>
      </trkpt>
      <trkpt lat="36.4833060" lon="137.4739500">
        <ele>1365.2290000</ele>
        <time>2008-09-12T03:11:04Z</time>
      </trkpt>
      <trkpt lat="36.4833110" lon="137.4739440">
        <ele>1364.3270000</ele>
        <time>2008-09-12T03:11:24Z</time>
      </trkpt>
      <trkpt lat="36.4833230" lon="137.4739420">
        <ele>1364.5490000</ele>
        <time>2008-09-12T03:11:44Z</time>
      </trkpt>
      <trkpt lat="36.4833300" lon="137.4739420">
        <ele>1365.1590000</ele>
        <time>2008-09-12T03:12:04Z</time>
      </trkpt>
      <trkpt lat="36.4833260" lon="137.4739360">
        <ele>1365.6030000</ele>
        <time>2008-09-12T03:12:24Z</time>
      </trkpt>
      <trkpt lat="36.4833300" lon="137.4739360">
        <ele>1365.1450000</ele>
        <time>2008-09-12T03:12:44Z</time>
      </trkpt>
      <trkpt lat="36.4833260" lon="137.4739340">
        <ele>1366.5360000</ele>
        <time>2008-09-12T03:13:04Z</time>
      </trkpt>
      <trkpt lat="36.4833260" lon="137.4739300">
        <ele>1366.6540000</ele>
        <time>2008-09-12T03:13:24Z</time>
      </trkpt>
      <trkpt lat="36.4833270" lon="137.4739300">
        <ele>1366.6050000</ele>
        <time>2008-09-12T03:13:44Z</time>
      </trkpt>
      <trkpt lat="36.4833280" lon="137.4739250">
        <ele>1365.5520000</ele>
        <time>2008-09-12T03:14:04Z</time>
      </trkpt>
      <trkpt lat="36.4833250" lon="137.4739270">
        <ele>1366.0590000</ele>
        <time>2008-09-12T03:14:24Z</time>
      </trkpt>
      <trkpt lat="36.4833290" lon="137.4739280">
        <ele>1367.1000000</ele>
        <time>2008-09-12T03:14:44Z</time>
      </trkpt>
      <trkpt lat="36.4833160" lon="137.4739390">
        <ele>1366.6290000</ele>
        <time>2008-09-12T03:15:04Z</time>
      </trkpt>
      <trkpt lat="36.4832760" lon="137.4739820">
        <ele>1366.2550000</ele>
        <time>2008-09-12T03:15:24Z</time>
      </trkpt>
      <trkpt lat="36.4832690" lon="137.4739890">
        <ele>1366.3370000</ele>
        <time>2008-09-12T03:15:44Z</time>
      </trkpt>
      <trkpt lat="36.4832720" lon="137.4739870">
        <ele>1365.8870000</ele>
        <time>2008-09-12T03:16:04Z</time>
      </trkpt>
      <trkpt lat="36.4832730" lon="137.4739920">
        <ele>1365.9780000</ele>
        <time>2008-09-12T03:16:24Z</time>
      </trkpt>
      <trkpt lat="36.4832930" lon="137.4739610">
        <ele>1366.0610000</ele>
        <time>2008-09-12T03:16:44Z</time>
      </trkpt>
      <trkpt lat="36.4832850" lon="137.4739550">
        <ele>1366.3020000</ele>
        <time>2008-09-12T03:17:04Z</time>
      </trkpt>
      <trkpt lat="36.4832780" lon="137.4739440">
        <ele>1367.3080000</ele>
        <time>2008-09-12T03:17:24Z</time>
      </trkpt>
      <trkpt lat="36.4833000" lon="137.4739240">
        <ele>1368.2300000</ele>
        <time>2008-09-12T03:17:44Z</time>
      </trkpt>
      <trkpt lat="36.4833060" lon="137.4739330">
        <ele>1369.4560000</ele>
        <time>2008-09-12T03:18:04Z</time>
      </trkpt>
      <trkpt lat="36.4833060" lon="137.4739240">
        <ele>1369.2210000</ele>
        <time>2008-09-12T03:18:25Z</time>
      </trkpt>
      <trkpt lat="36.4832990" lon="137.4739040">
        <ele>1367.6030000</ele>
        <time>2008-09-12T03:18:45Z</time>
      </trkpt>
      <trkpt lat="36.4831730" lon="137.4740300">
        <ele>1367.7220000</ele>
        <time>2008-09-12T03:19:05Z</time>
      </trkpt>
      <trkpt lat="36.4829790" lon="137.4743610">
        <ele>1367.3860000</ele>
        <time>2008-09-12T03:19:25Z</time>
      </trkpt>
      <trkpt lat="36.4828160" lon="137.4744120">
        <ele>1367.0490000</ele>
        <time>2008-09-12T03:19:45Z</time>
      </trkpt>
      <trkpt lat="36.4828260" lon="137.4744280">
        <ele>1369.5280000</ele>
        <time>2008-09-12T03:20:05Z</time>
      </trkpt>
      <trkpt lat="36.4828460" lon="137.4744550">
        <ele>1367.4950000</ele>
        <time>2008-09-12T03:20:25Z</time>
      </trkpt>
      <trkpt lat="36.4828530" lon="137.4744430">
        <ele>1366.2320000</ele>
        <time>2008-09-12T03:20:45Z</time>
      </trkpt>
      <trkpt lat="36.4828550" lon="137.4744450">
        <ele>1367.4900000</ele>
        <time>2008-09-12T03:21:05Z</time>
      </trkpt>
      <trkpt lat="36.4828520" lon="137.4744420">
        <ele>1368.1270000</ele>
        <time>2008-09-12T03:21:25Z</time>
      </trkpt>
      <trkpt lat="36.4828440" lon="137.4744370">
        <ele>1366.4720000</ele>
        <time>2008-09-12T03:21:45Z</time>
      </trkpt>
      <trkpt lat="36.4828390" lon="137.4744330">
        <ele>1367.9010000</ele>
        <time>2008-09-12T03:22:05Z</time>
      </trkpt>
      <trkpt lat="36.4828370" lon="137.4744320">
        <ele>1366.9490000</ele>
        <time>2008-09-12T03:22:25Z</time>
      </trkpt>
      <trkpt lat="36.4828330" lon="137.4744980">
        <ele>1367.7830000</ele>
        <time>2008-09-12T03:22:45Z</time>
      </trkpt>
      <trkpt lat="36.4827270" lon="137.4748000">
        <ele>1366.4090000</ele>
        <time>2008-09-12T03:23:05Z</time>
      </trkpt>
      <trkpt lat="36.4824980" lon="137.4749940">
        <ele>1367.6720000</ele>
        <time>2008-09-12T03:23:25Z</time>
      </trkpt>
      <trkpt lat="36.4822350" lon="137.4750990">
        <ele>1369.2500000</ele>
        <time>2008-09-12T03:23:45Z</time>
      </trkpt>
      <trkpt lat="36.4820550" lon="137.4752560">
        <ele>1377.4870000</ele>
        <time>2008-09-12T03:24:05Z</time>
      </trkpt>
      <trkpt lat="36.4820210" lon="137.4753460">
        <ele>1373.4750000</ele>
        <time>2008-09-12T03:24:25Z</time>
      </trkpt>
      <trkpt lat="36.4819910" lon="137.4754870">
        <ele>1377.2060000</ele>
        <time>2008-09-12T03:24:45Z</time>
      </trkpt>
      <trkpt lat="36.4819630" lon="137.4756210">
        <ele>1381.6900000</ele>
        <time>2008-09-12T03:25:05Z</time>
      </trkpt>
      <trkpt lat="36.4818990" lon="137.4757870">
        <ele>1386.3080000</ele>
        <time>2008-09-12T03:25:25Z</time>
      </trkpt>
      <trkpt lat="36.4818260" lon="137.4758270">
        <ele>1392.0290000</ele>
        <time>2008-09-12T03:25:45Z</time>
      </trkpt>
      <trkpt lat="36.4817490" lon="137.4759730">
        <ele>1394.6320000</ele>
        <time>2008-09-12T03:26:05Z</time>
      </trkpt>
      <trkpt lat="36.4817360" lon="137.4761380">
        <ele>1402.5590000</ele>
        <time>2008-09-12T03:26:25Z</time>
      </trkpt>
      <trkpt lat="36.4816770" lon="137.4763160">
        <ele>1406.6480000</ele>
        <time>2008-09-12T03:26:45Z</time>
      </trkpt>
      <trkpt lat="36.4815880" lon="137.4764630">
        <ele>1408.7060000</ele>
        <time>2008-09-12T03:27:05Z</time>
      </trkpt>
      <trkpt lat="36.4814790" lon="137.4765280">
        <ele>1411.4290000</ele>
        <time>2008-09-12T03:27:25Z</time>
      </trkpt>
      <trkpt lat="36.4814680" lon="137.4763980">
        <ele>1413.3350000</ele>
        <time>2008-09-12T03:27:45Z</time>
      </trkpt>
      <trkpt lat="36.4813720" lon="137.4763890">
        <ele>1417.4180000</ele>
        <time>2008-09-12T03:28:05Z</time>
      </trkpt>
      <trkpt lat="36.4812770" lon="137.4764030">
        <ele>1422.9820000</ele>
        <time>2008-09-12T03:28:25Z</time>
      </trkpt>
      <trkpt lat="36.4813170" lon="137.4763110">
        <ele>1425.0360000</ele>
        <time>2008-09-12T03:28:45Z</time>
      </trkpt>
      <trkpt lat="36.4812030" lon="137.4761620">
        <ele>1429.4780000</ele>
        <time>2008-09-12T03:29:05Z</time>
      </trkpt>
      <trkpt lat="36.4810390" lon="137.4761750">
        <ele>1434.0290000</ele>
        <time>2008-09-12T03:29:25Z</time>
      </trkpt>
      <trkpt lat="36.4809270" lon="137.4762310">
        <ele>1437.7150000</ele>
        <time>2008-09-12T03:29:45Z</time>
      </trkpt>
      <trkpt lat="36.4807940" lon="137.4763410">
        <ele>1443.4190000</ele>
        <time>2008-09-12T03:30:05Z</time>
      </trkpt>
      <trkpt lat="36.4807370" lon="137.4764110">
        <ele>1445.3350000</ele>
        <time>2008-09-12T03:30:25Z</time>
      </trkpt>
      <trkpt lat="36.4806220" lon="137.4765450">
        <ele>1449.7760000</ele>
        <time>2008-09-12T03:30:45Z</time>
      </trkpt>
      <trkpt lat="36.4805690" lon="137.4764840">
        <ele>1454.6880000</ele>
        <time>2008-09-12T03:31:05Z</time>
      </trkpt>
      <trkpt lat="36.4804830" lon="137.4764260">
        <ele>1456.4200000</ele>
        <time>2008-09-12T03:31:25Z</time>
      </trkpt>
      <trkpt lat="36.4803520" lon="137.4765480">
        <ele>1462.0620000</ele>
        <time>2008-09-12T03:31:45Z</time>
      </trkpt>
      <trkpt lat="36.4803240" lon="137.4767620">
        <ele>1464.3840000</ele>
        <time>2008-09-12T03:32:05Z</time>
      </trkpt>
      <trkpt lat="36.4802990" lon="137.4768800">
        <ele>1468.0300000</ele>
        <time>2008-09-12T03:32:25Z</time>
      </trkpt>
      <trkpt lat="36.4802790" lon="137.4770640">
        <ele>1472.7430000</ele>
        <time>2008-09-12T03:32:45Z</time>
      </trkpt>
      <trkpt lat="36.4802660" lon="137.4771350">
        <ele>1475.6870000</ele>
        <time>2008-09-12T03:33:05Z</time>
      </trkpt>
      <trkpt lat="36.4801920" lon="137.4771870">
        <ele>1481.1390000</ele>
        <time>2008-09-12T03:33:25Z</time>
      </trkpt>
      <trkpt lat="36.4802240" lon="137.4772290">
        <ele>1481.1060000</ele>
        <time>2008-09-12T03:33:45Z</time>
      </trkpt>
      <trkpt lat="36.4802250" lon="137.4772190">
        <ele>1480.6220000</ele>
        <time>2008-09-12T03:34:05Z</time>
      </trkpt>
      <trkpt lat="36.4802280" lon="137.4772190">
        <ele>1480.2320000</ele>
        <time>2008-09-12T03:34:25Z</time>
      </trkpt>
      <trkpt lat="36.4802290" lon="137.4772200">
        <ele>1480.3640000</ele>
        <time>2008-09-12T03:34:45Z</time>
      </trkpt>
      <trkpt lat="36.4802310" lon="137.4772210">
        <ele>1479.1970000</ele>
        <time>2008-09-12T03:35:05Z</time>
      </trkpt>
      <trkpt lat="36.4802340" lon="137.4772300">
        <ele>1478.4360000</ele>
        <time>2008-09-12T03:35:25Z</time>
      </trkpt>
      <trkpt lat="36.4802360" lon="137.4772350">
        <ele>1478.7900000</ele>
        <time>2008-09-12T03:35:45Z</time>
      </trkpt>
      <trkpt lat="36.4802370" lon="137.4772300">
        <ele>1479.4750000</ele>
        <time>2008-09-12T03:36:05Z</time>
      </trkpt>
      <trkpt lat="36.4802330" lon="137.4772280">
        <ele>1479.5830000</ele>
        <time>2008-09-12T03:36:25Z</time>
      </trkpt>
      <trkpt lat="36.4802270" lon="137.4772250">
        <ele>1480.2300000</ele>
        <time>2008-09-12T03:36:45Z</time>
      </trkpt>
      <trkpt lat="36.4802250" lon="137.4772200">
        <ele>1480.2740000</ele>
        <time>2008-09-12T03:37:05Z</time>
      </trkpt>
      <trkpt lat="36.4802250" lon="137.4772220">
        <ele>1480.8420000</ele>
        <time>2008-09-12T03:37:25Z</time>
      </trkpt>
      <trkpt lat="36.4802160" lon="137.4772240">
        <ele>1481.7810000</ele>
        <time>2008-09-12T03:37:45Z</time>
      </trkpt>
      <trkpt lat="36.4802110" lon="137.4772290">
        <ele>1482.0420000</ele>
        <time>2008-09-12T03:38:05Z</time>
      </trkpt>
      <trkpt lat="36.4802150" lon="137.4772460">
        <ele>1482.2580000</ele>
        <time>2008-09-12T03:38:25Z</time>
      </trkpt>
      <trkpt lat="36.4802220" lon="137.4772520">
        <ele>1482.0180000</ele>
        <time>2008-09-12T03:38:45Z</time>
      </trkpt>
      <trkpt lat="36.4802150" lon="137.4772520">
        <ele>1481.9340000</ele>
        <time>2008-09-12T03:39:05Z</time>
      </trkpt>
      <trkpt lat="36.4802120" lon="137.4772500">
        <ele>1482.1290000</ele>
        <time>2008-09-12T03:39:25Z</time>
      </trkpt>
      <trkpt lat="36.4802220" lon="137.4772990">
        <ele>1483.2000000</ele>
        <time>2008-09-12T03:39:45Z</time>
      </trkpt>
      <trkpt lat="36.4801280" lon="137.4773260">
        <ele>1486.4530000</ele>
        <time>2008-09-12T03:40:05Z</time>
      </trkpt>
      <trkpt lat="36.4800300" lon="137.4773460">
        <ele>1490.7740000</ele>
        <time>2008-09-12T03:40:25Z</time>
      </trkpt>
      <trkpt lat="36.4800140" lon="137.4773680">
        <ele>1492.3450000</ele>
        <time>2008-09-12T03:40:45Z</time>
      </trkpt>
      <trkpt lat="36.4798510" lon="137.4774520">
        <ele>1494.9470000</ele>
        <time>2008-09-12T03:41:05Z</time>
      </trkpt>
      <trkpt lat="36.4798830" lon="137.4775550">
        <ele>1499.7170000</ele>
        <time>2008-09-12T03:41:25Z</time>
      </trkpt>
      <trkpt lat="36.4798300" lon="137.4777330">
        <ele>1504.1740000</ele>
        <time>2008-09-12T03:41:45Z</time>
      </trkpt>
      <trkpt lat="36.4797860" lon="137.4778930">
        <ele>1507.4590000</ele>
        <time>2008-09-12T03:42:05Z</time>
      </trkpt>
      <trkpt lat="36.4796940" lon="137.4780850">
        <ele>1508.4890000</ele>
        <time>2008-09-12T03:42:25Z</time>
      </trkpt>
      <trkpt lat="36.4795250" lon="137.4781420">
        <ele>1507.9870000</ele>
        <time>2008-09-12T03:42:45Z</time>
      </trkpt>
      <trkpt lat="36.4793110" lon="137.4781990">
        <ele>1506.9890000</ele>
        <time>2008-09-12T03:43:05Z</time>
      </trkpt>
      <trkpt lat="36.4792190" lon="137.4783000">
        <ele>1509.5040000</ele>
        <time>2008-09-12T03:43:25Z</time>
      </trkpt>
      <trkpt lat="36.4791380" lon="137.4784170">
        <ele>1514.0660000</ele>
        <time>2008-09-12T03:43:45Z</time>
      </trkpt>
      <trkpt lat="36.4790200" lon="137.4785430">
        <ele>1520.2250000</ele>
        <time>2008-09-12T03:44:05Z</time>
      </trkpt>
      <trkpt lat="36.4789150" lon="137.4786960">
        <ele>1524.0040000</ele>
        <time>2008-09-12T03:44:25Z</time>
      </trkpt>
      <trkpt lat="36.4787760" lon="137.4786840">
        <ele>1525.0540000</ele>
        <time>2008-09-12T03:44:45Z</time>
      </trkpt>
      <trkpt lat="36.4786210" lon="137.4787850">
        <ele>1528.9790000</ele>
        <time>2008-09-12T03:45:05Z</time>
      </trkpt>
      <trkpt lat="36.4785280" lon="137.4788370">
        <ele>1530.8870000</ele>
        <time>2008-09-12T03:45:25Z</time>
      </trkpt>
      <trkpt lat="36.4784680" lon="137.4790180">
        <ele>1535.8670000</ele>
        <time>2008-09-12T03:45:45Z</time>
      </trkpt>
      <trkpt lat="36.4784250" lon="137.4790480">
        <ele>1541.8880000</ele>
        <time>2008-09-12T03:46:05Z</time>
      </trkpt>
      <trkpt lat="36.4783270" lon="137.4790320">
        <ele>1546.5880000</ele>
        <time>2008-09-12T03:46:25Z</time>
      </trkpt>
      <trkpt lat="36.4782930" lon="137.4790990">
        <ele>1551.6920000</ele>
        <time>2008-09-12T03:46:45Z</time>
      </trkpt>
      <trkpt lat="36.4782180" lon="137.4791400">
        <ele>1555.7260000</ele>
        <time>2008-09-12T03:47:05Z</time>
      </trkpt>
      <trkpt lat="36.4781270" lon="137.4792260">
        <ele>1558.6540000</ele>
        <time>2008-09-12T03:47:25Z</time>
      </trkpt>
      <trkpt lat="36.4781060" lon="137.4793580">
        <ele>1561.0680000</ele>
        <time>2008-09-12T03:47:45Z</time>
      </trkpt>
      <trkpt lat="36.4780160" lon="137.4794250">
        <ele>1563.2650000</ele>
        <time>2008-09-12T03:48:05Z</time>
      </trkpt>
      <trkpt lat="36.4779540" lon="137.4794830">
        <ele>1567.7260000</ele>
        <time>2008-09-12T03:48:25Z</time>
      </trkpt>
      <trkpt lat="36.4779570" lon="137.4795210">
        <ele>1571.2220000</ele>
        <time>2008-09-12T03:48:45Z</time>
      </trkpt>
      <trkpt lat="36.4779030" lon="137.4795980">
        <ele>1577.4270000</ele>
        <time>2008-09-12T03:49:05Z</time>
      </trkpt>
      <trkpt lat="36.4778790" lon="137.4797110">
        <ele>1581.2270000</ele>
        <time>2008-09-12T03:49:25Z</time>
      </trkpt>
      <trkpt lat="36.4778140" lon="137.4797430">
        <ele>1585.6510000</ele>
        <time>2008-09-12T03:49:45Z</time>
      </trkpt>
      <trkpt lat="36.4777880" lon="137.4798060">
        <ele>1589.2210000</ele>
        <time>2008-09-12T03:50:05Z</time>
      </trkpt>
      <trkpt lat="36.4776860" lon="137.4799090">
        <ele>1592.1600000</ele>
        <time>2008-09-12T03:50:25Z</time>
      </trkpt>
      <trkpt lat="36.4775660" lon="137.4800060">
        <ele>1597.4000000</ele>
        <time>2008-09-12T03:50:45Z</time>
      </trkpt>
      <trkpt lat="36.4776260" lon="137.4801000">
        <ele>1602.1180000</ele>
        <time>2008-09-12T03:51:05Z</time>
      </trkpt>
      <trkpt lat="36.4776900" lon="137.4802000">
        <ele>1605.0950000</ele>
        <time>2008-09-12T03:51:25Z</time>
      </trkpt>
      <trkpt lat="36.4776050" lon="137.4803140">
        <ele>1608.7990000</ele>
        <time>2008-09-12T03:51:45Z</time>
      </trkpt>
      <trkpt lat="36.4774960" lon="137.4803820">
        <ele>1611.7860000</ele>
        <time>2008-09-12T03:52:05Z</time>
      </trkpt>
      <trkpt lat="36.4774270" lon="137.4805290">
        <ele>1617.6690000</ele>
        <time>2008-09-12T03:52:25Z</time>
      </trkpt>
      <trkpt lat="36.4773430" lon="137.4806540">
        <ele>1621.0240000</ele>
        <time>2008-09-12T03:52:45Z</time>
      </trkpt>
      <trkpt lat="36.4772850" lon="137.4807750">
        <ele>1627.8340000</ele>
        <time>2008-09-12T03:53:05Z</time>
      </trkpt>
      <trkpt lat="36.4773010" lon="137.4809180">
        <ele>1631.4650000</ele>
        <time>2008-09-12T03:53:25Z</time>
      </trkpt>
      <trkpt lat="36.4772840" lon="137.4810370">
        <ele>1636.1880000</ele>
        <time>2008-09-12T03:53:45Z</time>
      </trkpt>
      <trkpt lat="36.4771720" lon="137.4811200">
        <ele>1641.2480000</ele>
        <time>2008-09-12T03:54:05Z</time>
      </trkpt>
      <trkpt lat="36.4771070" lon="137.4812770">
        <ele>1643.2410000</ele>
        <time>2008-09-12T03:54:25Z</time>
      </trkpt>
      <trkpt lat="36.4771000" lon="137.4814170">
        <ele>1648.0340000</ele>
        <time>2008-09-12T03:54:45Z</time>
      </trkpt>
      <trkpt lat="36.4769940" lon="137.4813680">
        <ele>1654.4710000</ele>
        <time>2008-09-12T03:55:05Z</time>
      </trkpt>
      <trkpt lat="36.4769970" lon="137.4815040">
        <ele>1656.1650000</ele>
        <time>2008-09-12T03:55:25Z</time>
      </trkpt>
      <trkpt lat="36.4769930" lon="137.4816720">
        <ele>1661.0650000</ele>
        <time>2008-09-12T03:55:45Z</time>
      </trkpt>
      <trkpt lat="36.4769510" lon="137.4818080">
        <ele>1664.7900000</ele>
        <time>2008-09-12T03:56:05Z</time>
      </trkpt>
      <trkpt lat="36.4769160" lon="137.4820120">
        <ele>1667.2140000</ele>
        <time>2008-09-12T03:56:25Z</time>
      </trkpt>
      <trkpt lat="36.4769150" lon="137.4821870">
        <ele>1670.2770000</ele>
        <time>2008-09-12T03:56:45Z</time>
      </trkpt>
      <trkpt lat="36.4768980" lon="137.4823490">
        <ele>1673.5740000</ele>
        <time>2008-09-12T03:57:05Z</time>
      </trkpt>
      <trkpt lat="36.4769340" lon="137.4825240">
        <ele>1678.4410000</ele>
        <time>2008-09-12T03:57:25Z</time>
      </trkpt>
      <trkpt lat="36.4769330" lon="137.4827380">
        <ele>1682.4050000</ele>
        <time>2008-09-12T03:57:45Z</time>
      </trkpt>
      <trkpt lat="36.4770310" lon="137.4828780">
        <ele>1684.1800000</ele>
        <time>2008-09-12T03:58:05Z</time>
      </trkpt>
      <trkpt lat="36.4771670" lon="137.4830220">
        <ele>1687.7820000</ele>
        <time>2008-09-12T03:58:25Z</time>
      </trkpt>
      <trkpt lat="36.4772490" lon="137.4832400">
        <ele>1689.0580000</ele>
        <time>2008-09-12T03:58:45Z</time>
      </trkpt>
      <trkpt lat="36.4772310" lon="137.4834630">
        <ele>1691.4500000</ele>
        <time>2008-09-12T03:59:05Z</time>
      </trkpt>
      <trkpt lat="36.4772040" lon="137.4836470">
        <ele>1693.9740000</ele>
        <time>2008-09-12T03:59:25Z</time>
      </trkpt>
      <trkpt lat="36.4772110" lon="137.4839040">
        <ele>1696.9800000</ele>
        <time>2008-09-12T03:59:45Z</time>
      </trkpt>
      <trkpt lat="36.4772460" lon="137.4841650">
        <ele>1697.2810000</ele>
        <time>2008-09-12T04:00:05Z</time>
      </trkpt>
      <trkpt lat="36.4772660" lon="137.4844000">
        <ele>1698.5820000</ele>
        <time>2008-09-12T04:00:25Z</time>
      </trkpt>
      <trkpt lat="36.4772800" lon="137.4844030">
        <ele>1698.3990000</ele>
        <time>2008-09-12T04:00:45Z</time>
      </trkpt>
      <trkpt lat="36.4772770" lon="137.4844120">
        <ele>1698.7120000</ele>
        <time>2008-09-12T04:01:05Z</time>
      </trkpt>
      <trkpt lat="36.4772710" lon="137.4844070">
        <ele>1699.2560000</ele>
        <time>2008-09-12T04:01:25Z</time>
      </trkpt>
      <trkpt lat="36.4772750" lon="137.4844710">
        <ele>1699.4240000</ele>
        <time>2008-09-12T04:01:45Z</time>
      </trkpt>
      <trkpt lat="36.4772890" lon="137.4846270">
        <ele>1701.3410000</ele>
        <time>2008-09-12T04:02:05Z</time>
      </trkpt>
      <trkpt lat="36.4772970" lon="137.4847550">
        <ele>1706.8650000</ele>
        <time>2008-09-12T04:02:25Z</time>
      </trkpt>
      <trkpt lat="36.4773490" lon="137.4848420">
        <ele>1709.2420000</ele>
        <time>2008-09-12T04:02:45Z</time>
      </trkpt>
      <trkpt lat="36.4773500" lon="137.4849930">
        <ele>1715.6290000</ele>
        <time>2008-09-12T04:03:05Z</time>
      </trkpt>
      <trkpt lat="36.4774120" lon="137.4851250">
        <ele>1718.9480000</ele>
        <time>2008-09-12T04:03:25Z</time>
      </trkpt>
      <trkpt lat="36.4774590" lon="137.4852440">
        <ele>1722.1280000</ele>
        <time>2008-09-12T04:03:45Z</time>
      </trkpt>
      <trkpt lat="36.4774980" lon="137.4854460">
        <ele>1724.7500000</ele>
        <time>2008-09-12T04:04:05Z</time>
      </trkpt>
      <trkpt lat="36.4775750" lon="137.4856000">
        <ele>1730.4460000</ele>
        <time>2008-09-12T04:04:25Z</time>
      </trkpt>
      <trkpt lat="36.4776140" lon="137.4857500">
        <ele>1733.7820000</ele>
        <time>2008-09-12T04:04:45Z</time>
      </trkpt>
      <trkpt lat="36.4776170" lon="137.4859340">
        <ele>1737.6600000</ele>
        <time>2008-09-12T04:05:05Z</time>
      </trkpt>
      <trkpt lat="36.4775880" lon="137.4861210">
        <ele>1742.8070000</ele>
        <time>2008-09-12T04:05:25Z</time>
      </trkpt>
      <trkpt lat="36.4775800" lon="137.4862730">
        <ele>1744.9930000</ele>
        <time>2008-09-12T04:05:45Z</time>
      </trkpt>
      <trkpt lat="36.4775700" lon="137.4864180">
        <ele>1750.5450000</ele>
        <time>2008-09-12T04:06:05Z</time>
      </trkpt>
      <trkpt lat="36.4775260" lon="137.4865090">
        <ele>1754.1340000</ele>
        <time>2008-09-12T04:06:25Z</time>
      </trkpt>
      <trkpt lat="36.4774870" lon="137.4866280">
        <ele>1757.4100000</ele>
        <time>2008-09-12T04:06:45Z</time>
      </trkpt>
      <trkpt lat="36.4773940" lon="137.4866650">
        <ele>1761.6540000</ele>
        <time>2008-09-12T04:07:05Z</time>
      </trkpt>
      <trkpt lat="36.4773610" lon="137.4867620">
        <ele>1765.2640000</ele>
        <time>2008-09-12T04:07:25Z</time>
      </trkpt>
      <trkpt lat="36.4774560" lon="137.4868810">
        <ele>1767.7810000</ele>
        <time>2008-09-12T04:07:45Z</time>
      </trkpt>
      <trkpt lat="36.4775110" lon="137.4870080">
        <ele>1773.0680000</ele>
        <time>2008-09-12T04:08:05Z</time>
      </trkpt>
      <trkpt lat="36.4775680" lon="137.4871600">
        <ele>1776.1120000</ele>
        <time>2008-09-12T04:08:25Z</time>
      </trkpt>
      <trkpt lat="36.4775590" lon="137.4872600">
        <ele>1779.0170000</ele>
        <time>2008-09-12T04:08:45Z</time>
      </trkpt>
      <trkpt lat="36.4775170" lon="137.4873790">
        <ele>1784.6520000</ele>
        <time>2008-09-12T04:09:05Z</time>
      </trkpt>
      <trkpt lat="36.4774870" lon="137.4875100">
        <ele>1787.0230000</ele>
        <time>2008-09-12T04:09:25Z</time>
      </trkpt>
      <trkpt lat="36.4774620" lon="137.4876660">
        <ele>1791.2880000</ele>
        <time>2008-09-12T04:09:45Z</time>
      </trkpt>
      <trkpt lat="36.4773860" lon="137.4878100">
        <ele>1795.6730000</ele>
        <time>2008-09-12T04:10:05Z</time>
      </trkpt>
      <trkpt lat="36.4773220" lon="137.4879370">
        <ele>1800.4340000</ele>
        <time>2008-09-12T04:10:25Z</time>
      </trkpt>
      <trkpt lat="36.4774260" lon="137.4881610">
        <ele>1801.5730000</ele>
        <time>2008-09-12T04:10:45Z</time>
      </trkpt>
      <trkpt lat="36.4774270" lon="137.4884050">
        <ele>1798.1140000</ele>
        <time>2008-09-12T04:11:05Z</time>
      </trkpt>
      <trkpt lat="36.4773650" lon="137.4887020">
        <ele>1796.9130000</ele>
        <time>2008-09-12T04:11:25Z</time>
      </trkpt>
      <trkpt lat="36.4773870" lon="137.4889820">
        <ele>1798.3390000</ele>
        <time>2008-09-12T04:11:45Z</time>
      </trkpt>
      <trkpt lat="36.4774390" lon="137.4892100">
        <ele>1800.0920000</ele>
        <time>2008-09-12T04:12:05Z</time>
      </trkpt>
      <trkpt lat="36.4775280" lon="137.4893730">
        <ele>1801.4340000</ele>
        <time>2008-09-12T04:12:25Z</time>
      </trkpt>
      <trkpt lat="36.4774760" lon="137.4895230">
        <ele>1804.6520000</ele>
        <time>2008-09-12T04:12:45Z</time>
      </trkpt>
      <trkpt lat="36.4774460" lon="137.4896730">
        <ele>1808.9800000</ele>
        <time>2008-09-12T04:13:05Z</time>
      </trkpt>
      <trkpt lat="36.4774080" lon="137.4898040">
        <ele>1813.5260000</ele>
        <time>2008-09-12T04:13:25Z</time>
      </trkpt>
      <trkpt lat="36.4773330" lon="137.4899070">
        <ele>1817.0120000</ele>
        <time>2008-09-12T04:13:45Z</time>
      </trkpt>
      <trkpt lat="36.4773590" lon="137.4900380">
        <ele>1819.8660000</ele>
        <time>2008-09-12T04:14:05Z</time>
      </trkpt>
      <trkpt lat="36.4773600" lon="137.4901850">
        <ele>1823.5500000</ele>
        <time>2008-09-12T04:14:25Z</time>
      </trkpt>
      <trkpt lat="36.4773010" lon="137.4902440">
        <ele>1828.3780000</ele>
        <time>2008-09-12T04:14:45Z</time>
      </trkpt>
      <trkpt lat="36.4773560" lon="137.4903930">
        <ele>1831.2080000</ele>
        <time>2008-09-12T04:15:05Z</time>
      </trkpt>
      <trkpt lat="36.4773370" lon="137.4905500">
        <ele>1834.3530000</ele>
        <time>2008-09-12T04:15:25Z</time>
      </trkpt>
      <trkpt lat="36.4772750" lon="137.4906550">
        <ele>1836.5590000</ele>
        <time>2008-09-12T04:15:45Z</time>
      </trkpt>
      <trkpt lat="36.4772090" lon="137.4907580">
        <ele>1841.8370000</ele>
        <time>2008-09-12T04:16:05Z</time>
      </trkpt>
      <trkpt lat="36.4771490" lon="137.4908470">
        <ele>1845.0470000</ele>
        <time>2008-09-12T04:16:25Z</time>
      </trkpt>
      <trkpt lat="36.4770580" lon="137.4908720">
        <ele>1850.4250000</ele>
        <time>2008-09-12T04:16:45Z</time>
      </trkpt>
      <trkpt lat="36.4769670" lon="137.4909880">
        <ele>1854.8050000</ele>
        <time>2008-09-12T04:17:05Z</time>
      </trkpt>
      <trkpt lat="36.4769070" lon="137.4910490">
        <ele>1857.2710000</ele>
        <time>2008-09-12T04:17:25Z</time>
      </trkpt>
      <trkpt lat="36.4768530" lon="137.4911430">
        <ele>1858.6270000</ele>
        <time>2008-09-12T04:17:45Z</time>
      </trkpt>
      <trkpt lat="36.4767690" lon="137.4913040">
        <ele>1863.0210000</ele>
        <time>2008-09-12T04:18:05Z</time>
      </trkpt>
      <trkpt lat="36.4766020" lon="137.4914980">
        <ele>1861.9720000</ele>
        <time>2008-09-12T04:18:25Z</time>
      </trkpt>
      <trkpt lat="36.4764620" lon="137.4917580">
        <ele>1861.0510000</ele>
        <time>2008-09-12T04:18:45Z</time>
      </trkpt>
      <trkpt lat="36.4763600" lon="137.4919640">
        <ele>1861.4350000</ele>
        <time>2008-09-12T04:19:05Z</time>
      </trkpt>
      <trkpt lat="36.4763350" lon="137.4920160">
        <ele>1861.9820000</ele>
        <time>2008-09-12T04:19:25Z</time>
      </trkpt>
      <trkpt lat="36.4763350" lon="137.4920070">
        <ele>1861.9960000</ele>
        <time>2008-09-12T04:19:45Z</time>
      </trkpt>
      <trkpt lat="36.4762600" lon="137.4921170">
        <ele>1864.7610000</ele>
        <time>2008-09-12T04:20:05Z</time>
      </trkpt>
      <trkpt lat="36.4761780" lon="137.4922440">
        <ele>1869.2960000</ele>
        <time>2008-09-12T04:20:25Z</time>
      </trkpt>
      <trkpt lat="36.4761370" lon="137.4923810">
        <ele>1872.7780000</ele>
        <time>2008-09-12T04:20:45Z</time>
      </trkpt>
      <trkpt lat="36.4760400" lon="137.4924900">
        <ele>1877.2140000</ele>
        <time>2008-09-12T04:21:05Z</time>
      </trkpt>
      <trkpt lat="36.4759960" lon="137.4926300">
        <ele>1879.7160000</ele>
        <time>2008-09-12T04:21:25Z</time>
      </trkpt>
      <trkpt lat="36.4760210" lon="137.4927850">
        <ele>1884.9310000</ele>
        <time>2008-09-12T04:21:45Z</time>
      </trkpt>
      <trkpt lat="36.4759610" lon="137.4929920">
        <ele>1886.9580000</ele>
        <time>2008-09-12T04:22:05Z</time>
      </trkpt>
      <trkpt lat="36.4759600" lon="137.4931070">
        <ele>1889.2710000</ele>
        <time>2008-09-12T04:22:25Z</time>
      </trkpt>
      <trkpt lat="36.4759720" lon="137.4933650">
        <ele>1892.1310000</ele>
        <time>2008-09-12T04:22:45Z</time>
      </trkpt>
      <trkpt lat="36.4759160" lon="137.4935870">
        <ele>1896.3750000</ele>
        <time>2008-09-12T04:23:05Z</time>
      </trkpt>
      <trkpt lat="36.4758610" lon="137.4938230">
        <ele>1898.9270000</ele>
        <time>2008-09-12T04:23:25Z</time>
      </trkpt>
      <trkpt lat="36.4757790" lon="137.4940170">
        <ele>1899.3560000</ele>
        <time>2008-09-12T04:23:46Z</time>
      </trkpt>
      <trkpt lat="36.4756620" lon="137.4941340">
        <ele>1903.4320000</ele>
        <time>2008-09-12T04:24:06Z</time>
      </trkpt>
      <trkpt lat="36.4755470" lon="137.4942950">
        <ele>1906.8830000</ele>
        <time>2008-09-12T04:24:27Z</time>
      </trkpt>
      <trkpt lat="36.4755320" lon="137.4943130">
        <ele>1907.8780000</ele>
        <time>2008-09-12T04:24:47Z</time>
      </trkpt>
      <trkpt lat="36.4755220" lon="137.4943040">
        <ele>1907.9290000</ele>
        <time>2008-09-12T04:25:07Z</time>
      </trkpt>
      <trkpt lat="36.4755090" lon="137.4943100">
        <ele>1909.5830000</ele>
        <time>2008-09-12T04:25:27Z</time>
      </trkpt>
      <trkpt lat="36.4753650" lon="137.4943970">
        <ele>1911.3750000</ele>
        <time>2008-09-12T04:25:47Z</time>
      </trkpt>
      <trkpt lat="36.4752480" lon="137.4944470">
        <ele>1912.2190000</ele>
        <time>2008-09-12T04:26:07Z</time>
      </trkpt>
      <trkpt lat="36.4752520" lon="137.4944490">
        <ele>1912.7130000</ele>
        <time>2008-09-12T04:26:27Z</time>
      </trkpt>
      <trkpt lat="36.4752530" lon="137.4944500">
        <ele>1912.2670000</ele>
        <time>2008-09-12T04:26:47Z</time>
      </trkpt>
      <trkpt lat="36.4752520" lon="137.4944510">
        <ele>1913.0310000</ele>
        <time>2008-09-12T04:27:07Z</time>
      </trkpt>
      <trkpt lat="36.4751610" lon="137.4945100">
        <ele>1913.8950000</ele>
        <time>2008-09-12T04:27:27Z</time>
      </trkpt>
      <trkpt lat="36.4749510" lon="137.4945730">
        <ele>1915.5880000</ele>
        <time>2008-09-12T04:27:47Z</time>
      </trkpt>
      <trkpt lat="36.4747370" lon="137.4946760">
        <ele>1918.4350000</ele>
        <time>2008-09-12T04:28:07Z</time>
      </trkpt>
      <trkpt lat="36.4745380" lon="137.4948400">
        <ele>1918.9510000</ele>
        <time>2008-09-12T04:28:27Z</time>
      </trkpt>
      <trkpt lat="36.4742770" lon="137.4949130">
        <ele>1920.5150000</ele>
        <time>2008-09-12T04:28:47Z</time>
      </trkpt>
      <trkpt lat="36.4740460" lon="137.4949300">
        <ele>1922.8420000</ele>
        <time>2008-09-12T04:29:07Z</time>
      </trkpt>
      <trkpt lat="36.4738230" lon="137.4948940">
        <ele>1923.8960000</ele>
        <time>2008-09-12T04:29:27Z</time>
      </trkpt>
      <trkpt lat="36.4735830" lon="137.4948560">
        <ele>1927.4900000</ele>
        <time>2008-09-12T04:29:47Z</time>
      </trkpt>
      <trkpt lat="36.4733380" lon="137.4949350">
        <ele>1929.0620000</ele>
        <time>2008-09-12T04:30:07Z</time>
      </trkpt>
      <trkpt lat="36.4731060" lon="137.4949410">
        <ele>1922.4580000</ele>
        <time>2008-09-12T04:30:27Z</time>
      </trkpt>
      <trkpt lat="36.4729180" lon="137.4950460">
        <ele>1918.6380000</ele>
        <time>2008-09-12T04:30:47Z</time>
      </trkpt>
      <trkpt lat="36.4727180" lon="137.4950820">
        <ele>1914.4660000</ele>
        <time>2008-09-12T04:31:07Z</time>
      </trkpt>
      <trkpt lat="36.4725800" lon="137.4952890">
        <ele>1911.9400000</ele>
        <time>2008-09-12T04:31:27Z</time>
      </trkpt>
      <trkpt lat="36.4723670" lon="137.4953550">
        <ele>1910.2870000</ele>
        <time>2008-09-12T04:31:47Z</time>
      </trkpt>
      <trkpt lat="36.4721410" lon="137.4953150">
        <ele>1909.1870000</ele>
        <time>2008-09-12T04:32:07Z</time>
      </trkpt>
      <trkpt lat="36.4719010" lon="137.4953520">
        <ele>1908.6550000</ele>
        <time>2008-09-12T04:32:27Z</time>
      </trkpt>
      <trkpt lat="36.4717270" lon="137.4955150">
        <ele>1905.6680000</ele>
        <time>2008-09-12T04:32:47Z</time>
      </trkpt>
      <trkpt lat="36.4714950" lon="137.4955760">
        <ele>1903.9390000</ele>
        <time>2008-09-12T04:33:07Z</time>
      </trkpt>
      <trkpt lat="36.4713360" lon="137.4956250">
        <ele>1905.8930000</ele>
        <time>2008-09-12T04:33:27Z</time>
      </trkpt>
      <trkpt lat="36.4712380" lon="137.4957310">
        <ele>1907.4320000</ele>
        <time>2008-09-12T04:33:47Z</time>
      </trkpt>
      <trkpt lat="36.4711080" lon="137.4958780">
        <ele>1909.2880000</ele>
        <time>2008-09-12T04:34:07Z</time>
      </trkpt>
      <trkpt lat="36.4709690" lon="137.4959700">
        <ele>1912.9510000</ele>
        <time>2008-09-12T04:34:27Z</time>
      </trkpt>
      <trkpt lat="36.4708370" lon="137.4960410">
        <ele>1915.5950000</ele>
        <time>2008-09-12T04:34:47Z</time>
      </trkpt>
      <trkpt lat="36.4707130" lon="137.4960700">
        <ele>1918.9640000</ele>
        <time>2008-09-12T04:35:07Z</time>
      </trkpt>
      <trkpt lat="36.4705700" lon="137.4961450">
        <ele>1922.1660000</ele>
        <time>2008-09-12T04:35:27Z</time>
      </trkpt>
      <trkpt lat="36.4704190" lon="137.4961560">
        <ele>1927.4680000</ele>
        <time>2008-09-12T04:35:47Z</time>
      </trkpt>
      <trkpt lat="36.4702880" lon="137.4961260">
        <ele>1929.7510000</ele>
        <time>2008-09-12T04:36:07Z</time>
      </trkpt>
      <trkpt lat="36.4701890" lon="137.4961040">
        <ele>1935.7130000</ele>
        <time>2008-09-12T04:36:27Z</time>
      </trkpt>
      <trkpt lat="36.4700910" lon="137.4961560">
        <ele>1938.2400000</ele>
        <time>2008-09-12T04:36:47Z</time>
      </trkpt>
      <trkpt lat="36.4700230" lon="137.4962810">
        <ele>1941.1810000</ele>
        <time>2008-09-12T04:37:07Z</time>
      </trkpt>
      <trkpt lat="36.4699240" lon="137.4963900">
        <ele>1946.5530000</ele>
        <time>2008-09-12T04:37:27Z</time>
      </trkpt>
      <trkpt lat="36.4698760" lon="137.4965140">
        <ele>1951.2970000</ele>
        <time>2008-09-12T04:37:47Z</time>
      </trkpt>
      <trkpt lat="36.4698050" lon="137.4966450">
        <ele>1953.4260000</ele>
        <time>2008-09-12T04:38:07Z</time>
      </trkpt>
      <trkpt lat="36.4696960" lon="137.4967070">
        <ele>1959.1290000</ele>
        <time>2008-09-12T04:38:27Z</time>
      </trkpt>
      <trkpt lat="36.4695720" lon="137.4966180">
        <ele>1961.5150000</ele>
        <time>2008-09-12T04:38:47Z</time>
      </trkpt>
      <trkpt lat="36.4694460" lon="137.4966050">
        <ele>1966.5070000</ele>
        <time>2008-09-12T04:39:07Z</time>
      </trkpt>
      <trkpt lat="36.4693240" lon="137.4966950">
        <ele>1970.1520000</ele>
        <time>2008-09-12T04:39:27Z</time>
      </trkpt>
      <trkpt lat="36.4692090" lon="137.4968990">
        <ele>1972.0690000</ele>
        <time>2008-09-12T04:39:47Z</time>
      </trkpt>
      <trkpt lat="36.4690850" lon="137.4971360">
        <ele>1972.9120000</ele>
        <time>2008-09-12T04:40:07Z</time>
      </trkpt>
      <trkpt lat="36.4690180" lon="137.4973160">
        <ele>1971.0990000</ele>
        <time>2008-09-12T04:40:27Z</time>
      </trkpt>
      <trkpt lat="36.4688250" lon="137.4975430">
        <ele>1970.5450000</ele>
        <time>2008-09-12T04:40:47Z</time>
      </trkpt>
      <trkpt lat="36.4687000" lon="137.4977360">
        <ele>1971.3090000</ele>
        <time>2008-09-12T04:41:07Z</time>
      </trkpt>
      <trkpt lat="36.4686420" lon="137.4979270">
        <ele>1974.3590000</ele>
        <time>2008-09-12T04:41:27Z</time>
      </trkpt>
      <trkpt lat="36.4686700" lon="137.4981110">
        <ele>1977.3230000</ele>
        <time>2008-09-12T04:41:47Z</time>
      </trkpt>
      <trkpt lat="36.4687560" lon="137.4983010">
        <ele>1979.7540000</ele>
        <time>2008-09-12T04:42:07Z</time>
      </trkpt>
      <trkpt lat="36.4688330" lon="137.4984390">
        <ele>1982.5070000</ele>
        <time>2008-09-12T04:42:27Z</time>
      </trkpt>
      <trkpt lat="36.4688000" lon="137.4986180">
        <ele>1984.1470000</ele>
        <time>2008-09-12T04:42:47Z</time>
      </trkpt>
      <trkpt lat="36.4687440" lon="137.4987680">
        <ele>1991.2910000</ele>
        <time>2008-09-12T04:43:07Z</time>
      </trkpt>
      <trkpt lat="36.4686900" lon="137.4988940">
        <ele>1995.2900000</ele>
        <time>2008-09-12T04:43:27Z</time>
      </trkpt>
      <trkpt lat="36.4686320" lon="137.4990170">
        <ele>1999.0900000</ele>
        <time>2008-09-12T04:43:47Z</time>
      </trkpt>
      <trkpt lat="36.4685700" lon="137.4991540">
        <ele>2003.3080000</ele>
        <time>2008-09-12T04:44:07Z</time>
      </trkpt>
      <trkpt lat="36.4684950" lon="137.4993150">
        <ele>2006.3080000</ele>
        <time>2008-09-12T04:44:27Z</time>
      </trkpt>
      <trkpt lat="36.4684210" lon="137.4995070">
        <ele>2008.4910000</ele>
        <time>2008-09-12T04:44:47Z</time>
      </trkpt>
      <trkpt lat="36.4683650" lon="137.4996920">
        <ele>2011.1320000</ele>
        <time>2008-09-12T04:45:07Z</time>
      </trkpt>
      <trkpt lat="36.4683090" lon="137.4998420">
        <ele>2013.1650000</ele>
        <time>2008-09-12T04:45:27Z</time>
      </trkpt>
      <trkpt lat="36.4682820" lon="137.5000500">
        <ele>2017.6000000</ele>
        <time>2008-09-12T04:45:47Z</time>
      </trkpt>
      <trkpt lat="36.4682590" lon="137.5002550">
        <ele>2019.8400000</ele>
        <time>2008-09-12T04:46:07Z</time>
      </trkpt>
      <trkpt lat="36.4682200" lon="137.5004750">
        <ele>2022.3910000</ele>
        <time>2008-09-12T04:46:27Z</time>
      </trkpt>
      <trkpt lat="36.4681860" lon="137.5006590">
        <ele>2029.1280000</ele>
        <time>2008-09-12T04:46:47Z</time>
      </trkpt>
      <trkpt lat="36.4681640" lon="137.5008220">
        <ele>2029.9630000</ele>
        <time>2008-09-12T04:47:07Z</time>
      </trkpt>
      <trkpt lat="36.4681480" lon="137.5009780">
        <ele>2035.3100000</ele>
        <time>2008-09-12T04:47:27Z</time>
      </trkpt>
      <trkpt lat="36.4681440" lon="137.5011220">
        <ele>2040.4010000</ele>
        <time>2008-09-12T04:47:47Z</time>
      </trkpt>
      <trkpt lat="36.4681420" lon="137.5012670">
        <ele>2045.1180000</ele>
        <time>2008-09-12T04:48:07Z</time>
      </trkpt>
      <trkpt lat="36.4681200" lon="137.5014110">
        <ele>2049.4460000</ele>
        <time>2008-09-12T04:48:27Z</time>
      </trkpt>
      <trkpt lat="36.4680750" lon="137.5015670">
        <ele>2051.1750000</ele>
        <time>2008-09-12T04:48:47Z</time>
      </trkpt>
      <trkpt lat="36.4680540" lon="137.5017540">
        <ele>2055.7790000</ele>
        <time>2008-09-12T04:49:07Z</time>
      </trkpt>
      <trkpt lat="36.4681080" lon="137.5019340">
        <ele>2060.4760000</ele>
        <time>2008-09-12T04:49:27Z</time>
      </trkpt>
      <trkpt lat="36.4681170" lon="137.5021140">
        <ele>2065.0810000</ele>
        <time>2008-09-12T04:49:47Z</time>
      </trkpt>
      <trkpt lat="36.4681350" lon="137.5022780">
        <ele>2066.3660000</ele>
        <time>2008-09-12T04:50:07Z</time>
      </trkpt>
      <trkpt lat="36.4681280" lon="137.5024340">
        <ele>2070.8570000</ele>
        <time>2008-09-12T04:50:27Z</time>
      </trkpt>
      <trkpt lat="36.4681130" lon="137.5026370">
        <ele>2074.3250000</ele>
        <time>2008-09-12T04:50:47Z</time>
      </trkpt>
      <trkpt lat="36.4680950" lon="137.5028370">
        <ele>2078.0490000</ele>
        <time>2008-09-12T04:51:07Z</time>
      </trkpt>
      <trkpt lat="36.4680620" lon="137.5030400">
        <ele>2079.2890000</ele>
        <time>2008-09-12T04:51:27Z</time>
      </trkpt>
      <trkpt lat="36.4680230" lon="137.5032250">
        <ele>2082.4660000</ele>
        <time>2008-09-12T04:51:47Z</time>
      </trkpt>
      <trkpt lat="36.4679910" lon="137.5033400">
        <ele>2085.4610000</ele>
        <time>2008-09-12T04:52:07Z</time>
      </trkpt>
      <trkpt lat="36.4679460" lon="137.5034970">
        <ele>2086.9010000</ele>
        <time>2008-09-12T04:52:27Z</time>
      </trkpt>
      <trkpt lat="36.4679040" lon="137.5036140">
        <ele>2090.9190000</ele>
        <time>2008-09-12T04:52:47Z</time>
      </trkpt>
      <trkpt lat="36.4678600" lon="137.5037570">
        <ele>2097.6610000</ele>
        <time>2008-09-12T04:53:07Z</time>
      </trkpt>
      <trkpt lat="36.4677930" lon="137.5038680">
        <ele>2100.8380000</ele>
        <time>2008-09-12T04:53:27Z</time>
      </trkpt>
      <trkpt lat="36.4677390" lon="137.5039970">
        <ele>2102.8530000</ele>
        <time>2008-09-12T04:53:47Z</time>
      </trkpt>
      <trkpt lat="36.4676820" lon="137.5041150">
        <ele>2108.0390000</ele>
        <time>2008-09-12T04:54:07Z</time>
      </trkpt>
      <trkpt lat="36.4676200" lon="137.5042510">
        <ele>2113.0020000</ele>
        <time>2008-09-12T04:54:27Z</time>
      </trkpt>
      <trkpt lat="36.4675600" lon="137.5043930">
        <ele>2116.0430000</ele>
        <time>2008-09-12T04:54:47Z</time>
      </trkpt>
      <trkpt lat="36.4674960" lon="137.5045740">
        <ele>2119.1040000</ele>
        <time>2008-09-12T04:55:07Z</time>
      </trkpt>
      <trkpt lat="36.4674180" lon="137.5047360">
        <ele>2121.8660000</ele>
        <time>2008-09-12T04:55:27Z</time>
      </trkpt>
      <trkpt lat="36.4673170" lon="137.5048880">
        <ele>2126.8090000</ele>
        <time>2008-09-12T04:55:47Z</time>
      </trkpt>
      <trkpt lat="36.4671760" lon="137.5050550">
        <ele>2127.7710000</ele>
        <time>2008-09-12T04:56:07Z</time>
      </trkpt>
      <trkpt lat="36.4670330" lon="137.5052090">
        <ele>2131.4800000</ele>
        <time>2008-09-12T04:56:27Z</time>
      </trkpt>
      <trkpt lat="36.4669030" lon="137.5053080">
        <ele>2134.7390000</ele>
        <time>2008-09-12T04:56:47Z</time>
      </trkpt>
      <trkpt lat="36.4667610" lon="137.5054350">
        <ele>2134.8280000</ele>
        <time>2008-09-12T04:57:07Z</time>
      </trkpt>
      <trkpt lat="36.4665780" lon="137.5054120">
        <ele>2135.1810000</ele>
        <time>2008-09-12T04:57:27Z</time>
      </trkpt>
      <trkpt lat="36.4664060" lon="137.5054170">
        <ele>2138.9470000</ele>
        <time>2008-09-12T04:57:47Z</time>
      </trkpt>
      <trkpt lat="36.4662120" lon="137.5054240">
        <ele>2142.2860000</ele>
        <time>2008-09-12T04:58:07Z</time>
      </trkpt>
      <trkpt lat="36.4659980" lon="137.5053650">
        <ele>2143.9790000</ele>
        <time>2008-09-12T04:58:27Z</time>
      </trkpt>
      <trkpt lat="36.4657880" lon="137.5053760">
        <ele>2146.5050000</ele>
        <time>2008-09-12T04:58:47Z</time>
      </trkpt>
      <trkpt lat="36.4655920" lon="137.5054170">
        <ele>2147.8860000</ele>
        <time>2008-09-12T04:59:07Z</time>
      </trkpt>
      <trkpt lat="36.4655760" lon="137.5054150">
        <ele>2148.6690000</ele>
        <time>2008-09-12T04:59:27Z</time>
      </trkpt>
      <trkpt lat="36.4655810" lon="137.5054150">
        <ele>2147.9930000</ele>
        <time>2008-09-12T04:59:47Z</time>
      </trkpt>
      <trkpt lat="36.4655820" lon="137.5054140">
        <ele>2149.1460000</ele>
        <time>2008-09-12T05:00:07Z</time>
      </trkpt>
      <trkpt lat="36.4655020" lon="137.5054860">
        <ele>2150.3580000</ele>
        <time>2008-09-12T05:00:27Z</time>
      </trkpt>
      <trkpt lat="36.4653600" lon="137.5056140">
        <ele>2151.9160000</ele>
        <time>2008-09-12T05:00:47Z</time>
      </trkpt>
      <trkpt lat="36.4652220" lon="137.5057550">
        <ele>2155.3660000</ele>
        <time>2008-09-12T05:01:07Z</time>
      </trkpt>
      <trkpt lat="36.4650400" lon="137.5058500">
        <ele>2157.1840000</ele>
        <time>2008-09-12T05:01:27Z</time>
      </trkpt>
      <trkpt lat="36.4648720" lon="137.5059100">
        <ele>2159.8410000</ele>
        <time>2008-09-12T05:01:47Z</time>
      </trkpt>
      <trkpt lat="36.4647160" lon="137.5059780">
        <ele>2162.8430000</ele>
        <time>2008-09-12T05:02:07Z</time>
      </trkpt>
      <trkpt lat="36.4645450" lon="137.5060870">
        <ele>2164.9200000</ele>
        <time>2008-09-12T05:02:27Z</time>
      </trkpt>
      <trkpt lat="36.4643800" lon="137.5062050">
        <ele>2166.3160000</ele>
        <time>2008-09-12T05:02:47Z</time>
      </trkpt>
      <trkpt lat="36.4642160" lon="137.5063330">
        <ele>2170.0540000</ele>
        <time>2008-09-12T05:03:07Z</time>
      </trkpt>
      <trkpt lat="36.4640510" lon="137.5064730">
        <ele>2173.9680000</ele>
        <time>2008-09-12T05:03:27Z</time>
      </trkpt>
      <trkpt lat="36.4638670" lon="137.5066330">
        <ele>2174.8400000</ele>
        <time>2008-09-12T05:03:47Z</time>
      </trkpt>
      <trkpt lat="36.4636840" lon="137.5067630">
        <ele>2177.1880000</ele>
        <time>2008-09-12T05:04:07Z</time>
      </trkpt>
      <trkpt lat="36.4635080" lon="137.5068830">
        <ele>2178.3730000</ele>
        <time>2008-09-12T05:04:27Z</time>
      </trkpt>
      <trkpt lat="36.4633170" lon="137.5069770">
        <ele>2181.0360000</ele>
        <time>2008-09-12T05:04:47Z</time>
      </trkpt>
      <trkpt lat="36.4630890" lon="137.5070660">
        <ele>2181.9200000</ele>
        <time>2008-09-12T05:05:07Z</time>
      </trkpt>
      <trkpt lat="36.4628480" lon="137.5071500">
        <ele>2183.3480000</ele>
        <time>2008-09-12T05:05:27Z</time>
      </trkpt>
      <trkpt lat="36.4626180" lon="137.5072710">
        <ele>2183.2750000</ele>
        <time>2008-09-12T05:05:47Z</time>
      </trkpt>
      <trkpt lat="36.4624270" lon="137.5074890">
        <ele>2180.5460000</ele>
        <time>2008-09-12T05:06:07Z</time>
      </trkpt>
      <trkpt lat="36.4623300" lon="137.5077840">
        <ele>2180.7130000</ele>
        <time>2008-09-12T05:06:27Z</time>
      </trkpt>
      <trkpt lat="36.4622360" lon="137.5080480">
        <ele>2183.8880000</ele>
        <time>2008-09-12T05:06:47Z</time>
      </trkpt>
      <trkpt lat="36.4620310" lon="137.5082540">
        <ele>2183.2900000</ele>
        <time>2008-09-12T05:07:07Z</time>
      </trkpt>
      <trkpt lat="36.4618250" lon="137.5084380">
        <ele>2182.4920000</ele>
        <time>2008-09-12T05:07:27Z</time>
      </trkpt>
      <trkpt lat="36.4616020" lon="137.5085780">
        <ele>2177.9290000</ele>
        <time>2008-09-12T05:07:47Z</time>
      </trkpt>
      <trkpt lat="36.4613790" lon="137.5087660">
        <ele>2179.4130000</ele>
        <time>2008-09-12T05:08:07Z</time>
      </trkpt>
      <trkpt lat="36.4611370" lon="137.5088700">
        <ele>2179.4570000</ele>
        <time>2008-09-12T05:08:27Z</time>
      </trkpt>
      <trkpt lat="36.4609640" lon="137.5090660">
        <ele>2177.3830000</ele>
        <time>2008-09-12T05:08:47Z</time>
      </trkpt>
      <trkpt lat="36.4607660" lon="137.5091840">
        <ele>2171.7040000</ele>
        <time>2008-09-12T05:09:07Z</time>
      </trkpt>
      <trkpt lat="36.4605520" lon="137.5093130">
        <ele>2166.8280000</ele>
        <time>2008-09-12T05:09:27Z</time>
      </trkpt>
      <trkpt lat="36.4603290" lon="137.5094620">
        <ele>2167.0300000</ele>
        <time>2008-09-12T05:09:47Z</time>
      </trkpt>
      <trkpt lat="36.4601380" lon="137.5096270">
        <ele>2167.3950000</ele>
        <time>2008-09-12T05:10:07Z</time>
      </trkpt>
      <trkpt lat="36.4599880" lon="137.5097520">
        <ele>2171.6890000</ele>
        <time>2008-09-12T05:10:27Z</time>
      </trkpt>
      <trkpt lat="36.4598310" lon="137.5098660">
        <ele>2175.5010000</ele>
        <time>2008-09-12T05:11:03Z</time>
      </trkpt>
      <trkpt lat="36.4596420" lon="137.5099310">
        <ele>2180.8310000</ele>
        <time>2008-09-12T05:11:08Z</time>
      </trkpt>
      <trkpt lat="36.4594400" lon="137.5099820">
        <ele>2184.1460000</ele>
        <time>2008-09-12T05:11:28Z</time>
      </trkpt>
      <trkpt lat="36.4592700" lon="137.5100620">
        <ele>2186.1570000</ele>
        <time>2008-09-12T05:11:48Z</time>
      </trkpt>
      <trkpt lat="36.4591310" lon="137.5101440">
        <ele>2189.9060000</ele>
        <time>2008-09-12T05:12:08Z</time>
      </trkpt>
      <trkpt lat="36.4589890" lon="137.5102520">
        <ele>2193.1710000</ele>
        <time>2008-09-12T05:12:28Z</time>
      </trkpt>
      <trkpt lat="36.4588310" lon="137.5103830">
        <ele>2193.7000000</ele>
        <time>2008-09-12T05:12:48Z</time>
      </trkpt>
      <trkpt lat="36.4586790" lon="137.5105700">
        <ele>2197.8390000</ele>
        <time>2008-09-12T05:13:08Z</time>
      </trkpt>
      <trkpt lat="36.4584960" lon="137.5107600">
        <ele>2199.4260000</ele>
        <time>2008-09-12T05:13:28Z</time>
      </trkpt>
      <trkpt lat="36.4582810" lon="137.5109280">
        <ele>2200.0850000</ele>
        <time>2008-09-12T05:13:48Z</time>
      </trkpt>
      <trkpt lat="36.4581010" lon="137.5111780">
        <ele>2200.7190000</ele>
        <time>2008-09-12T05:14:08Z</time>
      </trkpt>
      <trkpt lat="36.4579310" lon="137.5114130">
        <ele>2202.0940000</ele>
        <time>2008-09-12T05:14:28Z</time>
      </trkpt>
      <trkpt lat="36.4578020" lon="137.5116070">
        <ele>2204.4200000</ele>
        <time>2008-09-12T05:14:48Z</time>
      </trkpt>
      <trkpt lat="36.4576900" lon="137.5117830">
        <ele>2206.0810000</ele>
        <time>2008-09-12T05:15:08Z</time>
      </trkpt>
      <trkpt lat="36.4575480" lon="137.5119540">
        <ele>2208.3230000</ele>
        <time>2008-09-12T05:15:28Z</time>
      </trkpt>
      <trkpt lat="36.4574130" lon="137.5121190">
        <ele>2208.8010000</ele>
        <time>2008-09-12T05:15:48Z</time>
      </trkpt>
      <trkpt lat="36.4572210" lon="137.5122350">
        <ele>2209.7440000</ele>
        <time>2008-09-12T05:16:08Z</time>
      </trkpt>
      <trkpt lat="36.4569770" lon="137.5123610">
        <ele>2209.2420000</ele>
        <time>2008-09-12T05:16:28Z</time>
      </trkpt>
      <trkpt lat="36.4567910" lon="137.5124520">
        <ele>2212.5600000</ele>
        <time>2008-09-12T05:16:48Z</time>
      </trkpt>
      <trkpt lat="36.4565830" lon="137.5125790">
        <ele>2214.8480000</ele>
        <time>2008-09-12T05:17:08Z</time>
      </trkpt>
      <trkpt lat="36.4563500" lon="137.5127030">
        <ele>2214.9120000</ele>
        <time>2008-09-12T05:17:28Z</time>
      </trkpt>
      <trkpt lat="36.4561080" lon="137.5127540">
        <ele>2216.8200000</ele>
        <time>2008-09-12T05:17:48Z</time>
      </trkpt>
      <trkpt lat="36.4558860" lon="137.5127990">
        <ele>2217.0610000</ele>
        <time>2008-09-12T05:18:08Z</time>
      </trkpt>
      <trkpt lat="36.4556560" lon="137.5128750">
        <ele>2217.3790000</ele>
        <time>2008-09-12T05:18:28Z</time>
      </trkpt>
      <trkpt lat="36.4554140" lon="137.5129500">
        <ele>2219.8330000</ele>
        <time>2008-09-12T05:18:48Z</time>
      </trkpt>
      <trkpt lat="36.4551810" lon="137.5130180">
        <ele>2219.9350000</ele>
        <time>2008-09-12T05:19:08Z</time>
      </trkpt>
      <trkpt lat="36.4549800" lon="137.5130410">
        <ele>2224.0240000</ele>
        <time>2008-09-12T05:19:28Z</time>
      </trkpt>
      <trkpt lat="36.4548210" lon="137.5130700">
        <ele>2227.0500000</ele>
        <time>2008-09-12T05:19:48Z</time>
      </trkpt>
      <trkpt lat="36.4546600" lon="137.5130940">
        <ele>2229.0880000</ele>
        <time>2008-09-12T05:20:08Z</time>
      </trkpt>
      <trkpt lat="36.4545160" lon="137.5131050">
        <ele>2234.7310000</ele>
        <time>2008-09-12T05:20:28Z</time>
      </trkpt>
      <trkpt lat="36.4543820" lon="137.5131100">
        <ele>2238.0770000</ele>
        <time>2008-09-12T05:20:48Z</time>
      </trkpt>
      <trkpt lat="36.4542260" lon="137.5130770">
        <ele>2240.8540000</ele>
        <time>2008-09-12T05:21:08Z</time>
      </trkpt>
      <trkpt lat="36.4541020" lon="137.5130360">
        <ele>2242.5420000</ele>
        <time>2008-09-12T05:21:28Z</time>
      </trkpt>
      <trkpt lat="36.4540820" lon="137.5130360">
        <ele>2243.2190000</ele>
        <time>2008-09-12T05:21:48Z</time>
      </trkpt>
      <trkpt lat="36.4540150" lon="137.5130340">
        <ele>2245.1690000</ele>
        <time>2008-09-12T05:22:08Z</time>
      </trkpt>
      <trkpt lat="36.4538490" lon="137.5129840">
        <ele>2249.0260000</ele>
        <time>2008-09-12T05:22:28Z</time>
      </trkpt>
      <trkpt lat="36.4536780" lon="137.5129190">
        <ele>2252.6280000</ele>
        <time>2008-09-12T05:22:48Z</time>
      </trkpt>
      <trkpt lat="36.4535150" lon="137.5128380">
        <ele>2255.7590000</ele>
        <time>2008-09-12T05:23:08Z</time>
      </trkpt>
      <trkpt lat="36.4533600" lon="137.5128160">
        <ele>2260.5620000</ele>
        <time>2008-09-12T05:23:28Z</time>
      </trkpt>
      <trkpt lat="36.4532180" lon="137.5128010">
        <ele>2263.5080000</ele>
        <time>2008-09-12T05:23:48Z</time>
      </trkpt>
      <trkpt lat="36.4530830" lon="137.5128650">
        <ele>2267.2170000</ele>
        <time>2008-09-12T05:24:08Z</time>
      </trkpt>
      <trkpt lat="36.4529110" lon="137.5129740">
        <ele>2271.1470000</ele>
        <time>2008-09-12T05:24:28Z</time>
      </trkpt>
      <trkpt lat="36.4527500" lon="137.5130820">
        <ele>2272.7980000</ele>
        <time>2008-09-12T05:24:48Z</time>
      </trkpt>
      <trkpt lat="36.4525940" lon="137.5132580">
        <ele>2275.3890000</ele>
        <time>2008-09-12T05:25:08Z</time>
      </trkpt>
      <trkpt lat="36.4524980" lon="137.5134810">
        <ele>2276.4320000</ele>
        <time>2008-09-12T05:25:28Z</time>
      </trkpt>
      <trkpt lat="36.4524140" lon="137.5136900">
        <ele>2279.7460000</ele>
        <time>2008-09-12T05:25:48Z</time>
      </trkpt>
      <trkpt lat="36.4523070" lon="137.5138930">
        <ele>2281.6660000</ele>
        <time>2008-09-12T05:26:08Z</time>
      </trkpt>
      <trkpt lat="36.4521960" lon="137.5140730">
        <ele>2284.5800000</ele>
        <time>2008-09-12T05:26:28Z</time>
      </trkpt>
      <trkpt lat="36.4520730" lon="137.5142540">
        <ele>2287.5420000</ele>
        <time>2008-09-12T05:26:48Z</time>
      </trkpt>
      <trkpt lat="36.4519600" lon="137.5144600">
        <ele>2288.5830000</ele>
        <time>2008-09-12T05:27:08Z</time>
      </trkpt>
      <trkpt lat="36.4517480" lon="137.5145490">
        <ele>2288.7390000</ele>
        <time>2008-09-12T05:27:28Z</time>
      </trkpt>
      <trkpt lat="36.4514950" lon="137.5144980">
        <ele>2291.2460000</ele>
        <time>2008-09-12T05:27:48Z</time>
      </trkpt>
      <trkpt lat="36.4512740" lon="137.5143980">
        <ele>2294.6600000</ele>
        <time>2008-09-12T05:28:08Z</time>
      </trkpt>
      <trkpt lat="36.4510660" lon="137.5143180">
        <ele>2297.5130000</ele>
        <time>2008-09-12T05:28:28Z</time>
      </trkpt>
      <trkpt lat="36.4508750" lon="137.5143120">
        <ele>2299.9120000</ele>
        <time>2008-09-12T05:28:48Z</time>
      </trkpt>
      <trkpt lat="36.4506880" lon="137.5143180">
        <ele>2300.4370000</ele>
        <time>2008-09-12T05:29:08Z</time>
      </trkpt>
      <trkpt lat="36.4505050" lon="137.5144280">
        <ele>2303.9940000</ele>
        <time>2008-09-12T05:29:28Z</time>
      </trkpt>
      <trkpt lat="36.4502780" lon="137.5144930">
        <ele>2306.6150000</ele>
        <time>2008-09-12T05:29:48Z</time>
      </trkpt>
      <trkpt lat="36.4500390" lon="137.5146050">
        <ele>2306.8340000</ele>
        <time>2008-09-12T05:30:08Z</time>
      </trkpt>
      <trkpt lat="36.4498040" lon="137.5147300">
        <ele>2307.2620000</ele>
        <time>2008-09-12T05:30:28Z</time>
      </trkpt>
      <trkpt lat="36.4495930" lon="137.5149050">
        <ele>2308.2120000</ele>
        <time>2008-09-12T05:30:48Z</time>
      </trkpt>
      <trkpt lat="36.4494820" lon="137.5151760">
        <ele>2311.6000000</ele>
        <time>2008-09-12T05:31:08Z</time>
      </trkpt>
      <trkpt lat="36.4493990" lon="137.5154410">
        <ele>2315.1490000</ele>
        <time>2008-09-12T05:31:28Z</time>
      </trkpt>
      <trkpt lat="36.4492990" lon="137.5156590">
        <ele>2318.3090000</ele>
        <time>2008-09-12T05:31:48Z</time>
      </trkpt>
      <trkpt lat="36.4492260" lon="137.5158280">
        <ele>2320.2960000</ele>
        <time>2008-09-12T05:32:08Z</time>
      </trkpt>
      <trkpt lat="36.4491490" lon="137.5160510">
        <ele>2320.9540000</ele>
        <time>2008-09-12T05:32:28Z</time>
      </trkpt>
      <trkpt lat="36.4490570" lon="137.5162810">
        <ele>2323.7410000</ele>
        <time>2008-09-12T05:32:48Z</time>
      </trkpt>
      <trkpt lat="36.4489170" lon="137.5163140">
        <ele>2324.1250000</ele>
        <time>2008-09-12T05:33:08Z</time>
      </trkpt>
      <trkpt lat="36.4489660" lon="137.5163810">
        <ele>2326.0730000</ele>
        <time>2008-09-12T05:33:28Z</time>
      </trkpt>
      <trkpt lat="36.4489630" lon="137.5163950">
        <ele>2325.2990000</ele>
        <time>2008-09-12T05:33:48Z</time>
      </trkpt>
      <trkpt lat="36.4489620" lon="137.5164030">
        <ele>2325.1060000</ele>
        <time>2008-09-12T05:34:08Z</time>
      </trkpt>
      <trkpt lat="36.4489540" lon="137.5164090">
        <ele>2324.7300000</ele>
        <time>2008-09-12T05:34:28Z</time>
      </trkpt>
      <trkpt lat="36.4489510" lon="137.5164120">
        <ele>2324.9670000</ele>
        <time>2008-09-12T05:34:48Z</time>
      </trkpt>
      <trkpt lat="36.4489580" lon="137.5164130">
        <ele>2325.0920000</ele>
        <time>2008-09-12T05:35:08Z</time>
      </trkpt>
      <trkpt lat="36.4489550" lon="137.5164150">
        <ele>2325.8530000</ele>
        <time>2008-09-12T05:35:28Z</time>
      </trkpt>
      <trkpt lat="36.4489390" lon="137.5164170">
        <ele>2325.7060000</ele>
        <time>2008-09-12T05:35:48Z</time>
      </trkpt>
      <trkpt lat="36.4489470" lon="137.5164180">
        <ele>2326.2730000</ele>
        <time>2008-09-12T05:36:08Z</time>
      </trkpt>
      <trkpt lat="36.4489120" lon="137.5164180">
        <ele>2326.9430000</ele>
        <time>2008-09-12T05:36:30Z</time>
      </trkpt>
      <trkpt lat="36.4489000" lon="137.5164190">
        <ele>2325.6270000</ele>
        <time>2008-09-12T05:36:50Z</time>
      </trkpt>
      <trkpt lat="36.4488860" lon="137.5164180">
        <ele>2326.9070000</ele>
        <time>2008-09-12T05:37:10Z</time>
      </trkpt>
      <trkpt lat="36.4488760" lon="137.5164180">
        <ele>2325.1140000</ele>
        <time>2008-09-12T05:37:30Z</time>
      </trkpt>
      <trkpt lat="36.4489060" lon="137.5164220">
        <ele>2326.3230000</ele>
        <time>2008-09-12T05:37:50Z</time>
      </trkpt>
      <trkpt lat="36.4489010" lon="137.5164260">
        <ele>2325.8350000</ele>
        <time>2008-09-12T05:38:10Z</time>
      </trkpt>
      <trkpt lat="36.4488820" lon="137.5164260">
        <ele>2326.0670000</ele>
        <time>2008-09-12T05:38:30Z</time>
      </trkpt>
      <trkpt lat="36.4488900" lon="137.5164270">
        <ele>2325.8020000</ele>
        <time>2008-09-12T05:38:50Z</time>
      </trkpt>
      <trkpt lat="36.4489090" lon="137.5164280">
        <ele>2326.4270000</ele>
        <time>2008-09-12T05:39:10Z</time>
      </trkpt>
      <trkpt lat="36.4489050" lon="137.5164320">
        <ele>2325.7400000</ele>
        <time>2008-09-12T05:39:30Z</time>
      </trkpt>
      <trkpt lat="36.4489530" lon="137.5164340">
        <ele>2326.3460000</ele>
        <time>2008-09-12T05:39:50Z</time>
      </trkpt>
      <trkpt lat="36.4489410" lon="137.5164360">
        <ele>2325.5220000</ele>
        <time>2008-09-12T05:40:10Z</time>
      </trkpt>
      <trkpt lat="36.4489400" lon="137.5164410">
        <ele>2325.9580000</ele>
        <time>2008-09-12T05:40:30Z</time>
      </trkpt>
      <trkpt lat="36.4489440" lon="137.5164440">
        <ele>2326.1250000</ele>
        <time>2008-09-12T05:40:50Z</time>
      </trkpt>
      <trkpt lat="36.4489440" lon="137.5164450">
        <ele>2325.5580000</ele>
        <time>2008-09-12T05:41:10Z</time>
      </trkpt>
      <trkpt lat="36.4489500" lon="137.5164380">
        <ele>2325.5650000</ele>
        <time>2008-09-12T05:41:30Z</time>
      </trkpt>
      <trkpt lat="36.4489790" lon="137.5164400">
        <ele>2325.2720000</ele>
        <time>2008-09-12T05:41:50Z</time>
      </trkpt>
      <trkpt lat="36.4489950" lon="137.5164050">
        <ele>2326.3940000</ele>
        <time>2008-09-12T05:42:10Z</time>
      </trkpt>
      <trkpt lat="36.4489880" lon="137.5164120">
        <ele>2326.8990000</ele>
        <time>2008-09-12T05:42:30Z</time>
      </trkpt>
      <trkpt lat="36.4489780" lon="137.5164180">
        <ele>2326.9690000</ele>
        <time>2008-09-12T05:42:50Z</time>
      </trkpt>
      <trkpt lat="36.4489770" lon="137.5164240">
        <ele>2328.3760000</ele>
        <time>2008-09-12T05:43:10Z</time>
      </trkpt>
      <trkpt lat="36.4489780" lon="137.5164280">
        <ele>2326.8530000</ele>
        <time>2008-09-12T05:43:30Z</time>
      </trkpt>
      <trkpt lat="36.4489590" lon="137.5164220">
        <ele>2328.2210000</ele>
        <time>2008-09-12T05:43:50Z</time>
      </trkpt>
      <trkpt lat="36.4489810" lon="137.5164120">
        <ele>2327.1750000</ele>
        <time>2008-09-12T05:44:10Z</time>
      </trkpt>
      <trkpt lat="36.4489800" lon="137.5164130">
        <ele>2326.7280000</ele>
        <time>2008-09-12T05:44:30Z</time>
      </trkpt>
      <trkpt lat="36.4489760" lon="137.5164180">
        <ele>2327.5620000</ele>
        <time>2008-09-12T05:44:50Z</time>
      </trkpt>
      <trkpt lat="36.4489280" lon="137.5162980">
        <ele>2326.3890000</ele>
        <time>2008-09-12T05:45:10Z</time>
      </trkpt>
      <trkpt lat="36.4489690" lon="137.5165200">
        <ele>2328.3510000</ele>
        <time>2008-09-12T05:45:30Z</time>
      </trkpt>
      <trkpt lat="36.4489190" lon="137.5168750">
        <ele>2328.5120000</ele>
        <time>2008-09-12T05:45:50Z</time>
      </trkpt>
      <trkpt lat="36.4490020" lon="137.5172100">
        <ele>2329.8160000</ele>
        <time>2008-09-12T05:46:10Z</time>
      </trkpt>
      <trkpt lat="36.4491780" lon="137.5174900">
        <ele>2331.9790000</ele>
        <time>2008-09-12T05:46:30Z</time>
      </trkpt>
      <trkpt lat="36.4493430" lon="137.5177100">
        <ele>2331.6770000</ele>
        <time>2008-09-12T05:46:50Z</time>
      </trkpt>
      <trkpt lat="36.4494170" lon="137.5180620">
        <ele>2330.1890000</ele>
        <time>2008-09-12T05:47:10Z</time>
      </trkpt>
      <trkpt lat="36.4495340" lon="137.5184100">
        <ele>2331.4990000</ele>
        <time>2008-09-12T05:47:30Z</time>
      </trkpt>
      <trkpt lat="36.4497370" lon="137.5186630">
        <ele>2332.5770000</ele>
        <time>2008-09-12T05:47:50Z</time>
      </trkpt>
      <trkpt lat="36.4498790" lon="137.5189700">
        <ele>2334.6220000</ele>
        <time>2008-09-12T05:48:10Z</time>
      </trkpt>
      <trkpt lat="36.4499820" lon="137.5192160">
        <ele>2336.0490000</ele>
        <time>2008-09-12T05:48:30Z</time>
      </trkpt>
      <trkpt lat="36.4500930" lon="137.5194180">
        <ele>2336.8080000</ele>
        <time>2008-09-12T05:48:50Z</time>
      </trkpt>
      <trkpt lat="36.4502580" lon="137.5196460">
        <ele>2336.9820000</ele>
        <time>2008-09-12T05:49:10Z</time>
      </trkpt>
      <trkpt lat="36.4505130" lon="137.5198550">
        <ele>2336.8500000</ele>
        <time>2008-09-12T05:49:30Z</time>
      </trkpt>
      <trkpt lat="36.4506010" lon="137.5202190">
        <ele>2338.3530000</ele>
        <time>2008-09-12T05:49:50Z</time>
      </trkpt>
      <trkpt lat="36.4507800" lon="137.5205150">
        <ele>2339.0250000</ele>
        <time>2008-09-12T05:50:10Z</time>
      </trkpt>
      <trkpt lat="36.4508660" lon="137.5208470">
        <ele>2341.0210000</ele>
        <time>2008-09-12T05:50:30Z</time>
      </trkpt>
      <trkpt lat="36.4509840" lon="137.5211100">
        <ele>2343.7280000</ele>
        <time>2008-09-12T05:50:50Z</time>
      </trkpt>
      <trkpt lat="36.4511240" lon="137.5212980">
        <ele>2347.3370000</ele>
        <time>2008-09-12T05:51:10Z</time>
      </trkpt>
      <trkpt lat="36.4512720" lon="137.5214840">
        <ele>2350.2950000</ele>
        <time>2008-09-12T05:51:30Z</time>
      </trkpt>
      <trkpt lat="36.4515080" lon="137.5216940">
        <ele>2351.6210000</ele>
        <time>2008-09-12T05:51:50Z</time>
      </trkpt>
      <trkpt lat="36.4516990" lon="137.5220060">
        <ele>2349.6780000</ele>
        <time>2008-09-12T05:52:10Z</time>
      </trkpt>
      <trkpt lat="36.4518930" lon="137.5222880">
        <ele>2348.7030000</ele>
        <time>2008-09-12T05:52:30Z</time>
      </trkpt>
      <trkpt lat="36.4520330" lon="137.5226230">
        <ele>2346.0590000</ele>
        <time>2008-09-12T05:52:50Z</time>
      </trkpt>
      <trkpt lat="36.4522080" lon="137.5228470">
        <ele>2340.3100000</ele>
        <time>2008-09-12T05:53:10Z</time>
      </trkpt>
      <trkpt lat="36.4523820" lon="137.5230450">
        <ele>2336.5120000</ele>
        <time>2008-09-12T05:53:30Z</time>
      </trkpt>
      <trkpt lat="36.4525550" lon="137.5232770">
        <ele>2330.4560000</ele>
        <time>2008-09-12T05:53:50Z</time>
      </trkpt>
      <trkpt lat="36.4528000" lon="137.5234570">
        <ele>2323.4700000</ele>
        <time>2008-09-12T05:54:10Z</time>
      </trkpt>
      <trkpt lat="36.4530150" lon="137.5237350">
        <ele>2324.0150000</ele>
        <time>2008-09-12T05:54:30Z</time>
      </trkpt>
      <trkpt lat="36.4530920" lon="137.5240500">
        <ele>2319.5780000</ele>
        <time>2008-09-12T05:54:50Z</time>
      </trkpt>
      <trkpt lat="36.4532270" lon="137.5242760">
        <ele>2315.6920000</ele>
        <time>2008-09-12T05:55:10Z</time>
      </trkpt>
      <trkpt lat="36.4532780" lon="137.5244750">
        <ele>2311.2830000</ele>
        <time>2008-09-12T05:55:30Z</time>
      </trkpt>
      <trkpt lat="36.4532690" lon="137.5246450">
        <ele>2305.7960000</ele>
        <time>2008-09-12T05:55:50Z</time>
      </trkpt>
      <trkpt lat="36.4533390" lon="137.5248150">
        <ele>2298.1900000</ele>
        <time>2008-09-12T05:56:10Z</time>
      </trkpt>
      <trkpt lat="36.4532720" lon="137.5249680">
        <ele>2296.4140000</ele>
        <time>2008-09-12T05:56:30Z</time>
      </trkpt>
      <trkpt lat="36.4532670" lon="137.5249320">
        <ele>2296.8330000</ele>
        <time>2008-09-12T05:56:50Z</time>
      </trkpt>
      <trkpt lat="36.4533830" lon="137.5249700">
        <ele>2296.6950000</ele>
        <time>2008-09-12T05:57:10Z</time>
      </trkpt>
      <trkpt lat="36.4533370" lon="137.5250570">
        <ele>2296.9070000</ele>
        <time>2008-09-12T05:57:30Z</time>
      </trkpt>
      <trkpt lat="36.4533380" lon="137.5250650">
        <ele>2296.4790000</ele>
        <time>2008-09-12T05:57:50Z</time>
      </trkpt>
      <trkpt lat="36.4533320" lon="137.5250610">
        <ele>2296.5770000</ele>
        <time>2008-09-12T05:58:10Z</time>
      </trkpt>
      <trkpt lat="36.4533290" lon="137.5250610">
        <ele>2296.3920000</ele>
        <time>2008-09-12T05:58:30Z</time>
      </trkpt>
      <trkpt lat="36.4532940" lon="137.5250760">
        <ele>2297.0510000</ele>
        <time>2008-09-12T05:58:50Z</time>
      </trkpt>
      <trkpt lat="36.4531180" lon="137.5250200">
        <ele>2295.3250000</ele>
        <time>2008-09-12T05:59:10Z</time>
      </trkpt>
      <trkpt lat="36.4529770" lon="137.5249760">
        <ele>2292.6190000</ele>
        <time>2008-09-12T05:59:30Z</time>
      </trkpt>
      <trkpt lat="36.4528550" lon="137.5249220">
        <ele>2291.4780000</ele>
        <time>2008-09-12T05:59:50Z</time>
      </trkpt>
      <trkpt lat="36.4528690" lon="137.5249140">
        <ele>2290.8450000</ele>
        <time>2008-09-12T06:00:10Z</time>
      </trkpt>
      <trkpt lat="36.4528770" lon="137.5249230">
        <ele>2289.6080000</ele>
        <time>2008-09-12T06:00:30Z</time>
      </trkpt>
      <trkpt lat="36.4528720" lon="137.5249200">
        <ele>2290.0240000</ele>
        <time>2008-09-12T06:00:50Z</time>
      </trkpt>
      <trkpt lat="36.4528670" lon="137.5249220">
        <ele>2290.1730000</ele>
        <time>2008-09-12T06:01:10Z</time>
      </trkpt>
      <trkpt lat="36.4528580" lon="137.5249250">
        <ele>2289.3720000</ele>
        <time>2008-09-12T06:01:30Z</time>
      </trkpt>
      <trkpt lat="36.4528590" lon="137.5249220">
        <ele>2289.9010000</ele>
        <time>2008-09-12T06:01:50Z</time>
      </trkpt>
      <trkpt lat="36.4528630" lon="137.5249180">
        <ele>2288.1100000</ele>
        <time>2008-09-12T06:02:10Z</time>
      </trkpt>
      <trkpt lat="36.4528660" lon="137.5249150">
        <ele>2289.1730000</ele>
        <time>2008-09-12T06:02:30Z</time>
      </trkpt>
      <trkpt lat="36.4528670" lon="137.5249140">
        <ele>2288.4270000</ele>
        <time>2008-09-12T06:02:50Z</time>
      </trkpt>
      <trkpt lat="36.4528670" lon="137.5249150">
        <ele>2287.4590000</ele>
        <time>2008-09-12T06:03:10Z</time>
      </trkpt>
      <trkpt lat="36.4528670" lon="137.5249180">
        <ele>2288.1670000</ele>
        <time>2008-09-12T06:03:31Z</time>
      </trkpt>
      <trkpt lat="36.4528680" lon="137.5249190">
        <ele>2288.0360000</ele>
        <time>2008-09-12T06:03:51Z</time>
      </trkpt>
      <trkpt lat="36.4528680" lon="137.5249190">
        <ele>2287.4840000</ele>
        <time>2008-09-12T06:04:11Z</time>
      </trkpt>
      <trkpt lat="36.4528670" lon="137.5249190">
        <ele>2287.8220000</ele>
        <time>2008-09-12T06:04:31Z</time>
      </trkpt>
      <trkpt lat="36.4528690" lon="137.5249180">
        <ele>2288.7510000</ele>
        <time>2008-09-12T06:04:51Z</time>
      </trkpt>
      <trkpt lat="36.4528680" lon="137.5249170">
        <ele>2288.3760000</ele>
        <time>2008-09-12T06:05:11Z</time>
      </trkpt>
      <trkpt lat="36.4528650" lon="137.5249170">
        <ele>2288.3700000</ele>
        <time>2008-09-12T06:05:31Z</time>
      </trkpt>
      <trkpt lat="36.4528640" lon="137.5249170">
        <ele>2288.0840000</ele>
        <time>2008-09-12T06:05:51Z</time>
      </trkpt>
      <trkpt lat="36.4528640" lon="137.5249180">
        <ele>2288.2410000</ele>
        <time>2008-09-12T06:06:11Z</time>
      </trkpt>
      <trkpt lat="36.4528640" lon="137.5249190">
        <ele>2288.0070000</ele>
        <time>2008-09-12T06:06:31Z</time>
      </trkpt>
      <trkpt lat="36.4528630" lon="137.5249220">
        <ele>2288.6070000</ele>
        <time>2008-09-12T06:06:51Z</time>
      </trkpt>
      <trkpt lat="36.4528640" lon="137.5249240">
        <ele>2289.1060000</ele>
        <time>2008-09-12T06:07:11Z</time>
      </trkpt>
      <trkpt lat="36.4528640" lon="137.5249260">
        <ele>2289.8440000</ele>
        <time>2008-09-12T06:07:31Z</time>
      </trkpt>
      <trkpt lat="36.4528640" lon="137.5249260">
        <ele>2289.1260000</ele>
        <time>2008-09-12T06:07:51Z</time>
      </trkpt>
      <trkpt lat="36.4528640" lon="137.5249250">
        <ele>2290.7880000</ele>
        <time>2008-09-12T06:08:11Z</time>
      </trkpt>
      <trkpt lat="36.4528680" lon="137.5249230">
        <ele>2289.5700000</ele>
        <time>2008-09-12T06:08:31Z</time>
      </trkpt>
      <trkpt lat="36.4528670" lon="137.5249230">
        <ele>2288.9630000</ele>
        <time>2008-09-12T06:08:51Z</time>
      </trkpt>
      <trkpt lat="36.4528670" lon="137.5249210">
        <ele>2290.1560000</ele>
        <time>2008-09-12T06:09:11Z</time>
      </trkpt>
      <trkpt lat="36.4528720" lon="137.5249180">
        <ele>2289.7480000</ele>
        <time>2008-09-12T06:09:31Z</time>
      </trkpt>
      <trkpt lat="36.4528550" lon="137.5249170">
        <ele>2289.9090000</ele>
        <time>2008-09-12T06:09:51Z</time>
      </trkpt>
      <trkpt lat="36.4528540" lon="137.5249160">
        <ele>2290.3670000</ele>
        <time>2008-09-12T06:10:11Z</time>
      </trkpt>
      <trkpt lat="36.4528490" lon="137.5249100">
        <ele>2291.3300000</ele>
        <time>2008-09-12T06:10:31Z</time>
      </trkpt>
      <trkpt lat="36.4528480" lon="137.5249080">
        <ele>2291.1510000</ele>
        <time>2008-09-12T06:10:51Z</time>
      </trkpt>
      <trkpt lat="36.4528430" lon="137.5249050">
        <ele>2292.0630000</ele>
        <time>2008-09-12T06:11:11Z</time>
      </trkpt>
      <trkpt lat="36.4528490" lon="137.5249210">
        <ele>2292.4160000</ele>
        <time>2008-09-12T06:11:31Z</time>
      </trkpt>
      <trkpt lat="36.4530570" lon="137.5250480">
        <ele>2296.3680000</ele>
        <time>2008-09-12T06:11:51Z</time>
      </trkpt>
      <trkpt lat="36.4532710" lon="137.5251770">
        <ele>2297.0010000</ele>
        <time>2008-09-12T06:12:11Z</time>
      </trkpt>
      <trkpt lat="36.4533720" lon="137.5254220">
        <ele>2299.6810000</ele>
        <time>2008-09-12T06:12:31Z</time>
      </trkpt>
      <trkpt lat="36.4534070" lon="137.5256350">
        <ele>2303.1390000</ele>
        <time>2008-09-12T06:12:51Z</time>
      </trkpt>
      <trkpt lat="36.4534090" lon="137.5258560">
        <ele>2305.7600000</ele>
        <time>2008-09-12T06:13:11Z</time>
      </trkpt>
      <trkpt lat="36.4534510" lon="137.5259950">
        <ele>2311.1680000</ele>
        <time>2008-09-12T06:13:31Z</time>
      </trkpt>
      <trkpt lat="36.4535200" lon="137.5261380">
        <ele>2315.8610000</ele>
        <time>2008-09-12T06:13:51Z</time>
      </trkpt>
      <trkpt lat="36.4536150" lon="137.5262680">
        <ele>2320.5750000</ele>
        <time>2008-09-12T06:14:11Z</time>
      </trkpt>
      <trkpt lat="36.4536470" lon="137.5264220">
        <ele>2320.7850000</ele>
        <time>2008-09-12T06:14:31Z</time>
      </trkpt>
      <trkpt lat="36.4536600" lon="137.5264970">
        <ele>2322.4310000</ele>
        <time>2008-09-12T06:14:51Z</time>
      </trkpt>
      <trkpt lat="36.4536950" lon="137.5266200">
        <ele>2326.9440000</ele>
        <time>2008-09-12T06:15:11Z</time>
      </trkpt>
      <trkpt lat="36.4537280" lon="137.5267070">
        <ele>2331.5150000</ele>
        <time>2008-09-12T06:15:31Z</time>
      </trkpt>
      <trkpt lat="36.4537670" lon="137.5268080">
        <ele>2336.1290000</ele>
        <time>2008-09-12T06:15:51Z</time>
      </trkpt>
      <trkpt lat="36.4537710" lon="137.5268710">
        <ele>2337.2680000</ele>
        <time>2008-09-12T06:16:11Z</time>
      </trkpt>
      <trkpt lat="36.4537820" lon="137.5268910">
        <ele>2338.1230000</ele>
        <time>2008-09-12T06:16:31Z</time>
      </trkpt>
      <trkpt lat="36.4538230" lon="137.5269560">
        <ele>2340.2540000</ele>
        <time>2008-09-12T06:16:51Z</time>
      </trkpt>
      <trkpt lat="36.4537980" lon="137.5270860">
        <ele>2346.5790000</ele>
        <time>2008-09-12T06:17:11Z</time>
      </trkpt>
      <trkpt lat="36.4537690" lon="137.5271950">
        <ele>2351.2600000</ele>
        <time>2008-09-12T06:17:31Z</time>
      </trkpt>
      <trkpt lat="36.4537230" lon="137.5272490">
        <ele>2353.0920000</ele>
        <time>2008-09-12T06:17:51Z</time>
      </trkpt>
      <trkpt lat="36.4536930" lon="137.5273560">
        <ele>2357.6860000</ele>
        <time>2008-09-12T06:18:11Z</time>
      </trkpt>
      <trkpt lat="36.4537390" lon="137.5274840">
        <ele>2361.2240000</ele>
        <time>2008-09-12T06:18:31Z</time>
      </trkpt>
      <trkpt lat="36.4538070" lon="137.5275960">
        <ele>2364.8090000</ele>
        <time>2008-09-12T06:18:51Z</time>
      </trkpt>
      <trkpt lat="36.4538390" lon="137.5277320">
        <ele>2369.0420000</ele>
        <time>2008-09-12T06:19:11Z</time>
      </trkpt>
      <trkpt lat="36.4538690" lon="137.5278670">
        <ele>2373.7840000</ele>
        <time>2008-09-12T06:19:31Z</time>
      </trkpt>
      <trkpt lat="36.4539010" lon="137.5279680">
        <ele>2376.7800000</ele>
        <time>2008-09-12T06:19:51Z</time>
      </trkpt>
      <trkpt lat="36.4539510" lon="137.5280120">
        <ele>2383.9640000</ele>
        <time>2008-09-12T06:20:11Z</time>
      </trkpt>
      <trkpt lat="36.4540050" lon="137.5280450">
        <ele>2384.2340000</ele>
        <time>2008-09-12T06:20:31Z</time>
      </trkpt>
      <trkpt lat="36.4540740" lon="137.5281220">
        <ele>2390.6990000</ele>
        <time>2008-09-12T06:20:51Z</time>
      </trkpt>
      <trkpt lat="36.4540910" lon="137.5282320">
        <ele>2394.0380000</ele>
        <time>2008-09-12T06:21:11Z</time>
      </trkpt>
      <trkpt lat="36.4541380" lon="137.5283200">
        <ele>2397.1390000</ele>
        <time>2008-09-12T06:21:31Z</time>
      </trkpt>
      <trkpt lat="36.4541540" lon="137.5283300">
        <ele>2398.3630000</ele>
        <time>2008-09-12T06:21:51Z</time>
      </trkpt>
      <trkpt lat="36.4541880" lon="137.5283810">
        <ele>2401.7190000</ele>
        <time>2008-09-12T06:22:11Z</time>
      </trkpt>
      <trkpt lat="36.4542650" lon="137.5284610">
        <ele>2407.3340000</ele>
        <time>2008-09-12T06:22:31Z</time>
      </trkpt>
      <trkpt lat="36.4543720" lon="137.5285600">
        <ele>2411.6690000</ele>
        <time>2008-09-12T06:22:51Z</time>
      </trkpt>
      <trkpt lat="36.4544020" lon="137.5287060">
        <ele>2414.6470000</ele>
        <time>2008-09-12T06:23:11Z</time>
      </trkpt>
      <trkpt lat="36.4544290" lon="137.5288320">
        <ele>2415.8200000</ele>
        <time>2008-09-12T06:23:31Z</time>
      </trkpt>
      <trkpt lat="36.4544670" lon="137.5289720">
        <ele>2421.1310000</ele>
        <time>2008-09-12T06:23:51Z</time>
      </trkpt>
      <trkpt lat="36.4545500" lon="137.5290750">
        <ele>2426.3160000</ele>
        <time>2008-09-12T06:24:11Z</time>
      </trkpt>
      <trkpt lat="36.4546520" lon="137.5291120">
        <ele>2431.0370000</ele>
        <time>2008-09-12T06:24:31Z</time>
      </trkpt>
      <trkpt lat="36.4547180" lon="137.5292070">
        <ele>2434.3280000</ele>
        <time>2008-09-12T06:24:51Z</time>
      </trkpt>
      <trkpt lat="36.4546500" lon="137.5293060">
        <ele>2437.7250000</ele>
        <time>2008-09-12T06:25:11Z</time>
      </trkpt>
      <trkpt lat="36.4547140" lon="137.5293980">
        <ele>2441.6070000</ele>
        <time>2008-09-12T06:25:31Z</time>
      </trkpt>
      <trkpt lat="36.4547940" lon="137.5295400">
        <ele>2445.0750000</ele>
        <time>2008-09-12T06:25:51Z</time>
      </trkpt>
      <trkpt lat="36.4548690" lon="137.5296900">
        <ele>2448.3350000</ele>
        <time>2008-09-12T06:26:11Z</time>
      </trkpt>
      <trkpt lat="36.4548750" lon="137.5298700">
        <ele>2454.4690000</ele>
        <time>2008-09-12T06:26:31Z</time>
      </trkpt>
      <trkpt lat="36.4549060" lon="137.5300700">
        <ele>2456.0100000</ele>
        <time>2008-09-12T06:26:51Z</time>
      </trkpt>
      <trkpt lat="36.4548950" lon="137.5303100">
        <ele>2457.0820000</ele>
        <time>2008-09-12T06:27:11Z</time>
      </trkpt>
      <trkpt lat="36.4549240" lon="137.5305640">
        <ele>2459.1840000</ele>
        <time>2008-09-12T06:27:31Z</time>
      </trkpt>
      <trkpt lat="36.4549110" lon="137.5307850">
        <ele>2463.3210000</ele>
        <time>2008-09-12T06:27:51Z</time>
      </trkpt>
      <trkpt lat="36.4548750" lon="137.5309820">
        <ele>2466.2660000</ele>
        <time>2008-09-12T06:28:11Z</time>
      </trkpt>
      <trkpt lat="36.4548080" lon="137.5311880">
        <ele>2469.7440000</ele>
        <time>2008-09-12T06:28:31Z</time>
      </trkpt>
      <trkpt lat="36.4545970" lon="137.5312290">
        <ele>2471.7300000</ele>
        <time>2008-09-12T06:28:51Z</time>
      </trkpt>
      <trkpt lat="36.4543720" lon="137.5314020">
        <ele>2474.0820000</ele>
        <time>2008-09-12T06:29:11Z</time>
      </trkpt>
      <trkpt lat="36.4542200" lon="137.5316850">
        <ele>2473.9540000</ele>
        <time>2008-09-12T06:29:31Z</time>
      </trkpt>
      <trkpt lat="36.4541440" lon="137.5319040">
        <ele>2476.2900000</ele>
        <time>2008-09-12T06:29:51Z</time>
      </trkpt>
      <trkpt lat="36.4541220" lon="137.5320280">
        <ele>2480.1640000</ele>
        <time>2008-09-12T06:30:11Z</time>
      </trkpt>
      <trkpt lat="36.4541700" lon="137.5322180">
        <ele>2482.1150000</ele>
        <time>2008-09-12T06:30:31Z</time>
      </trkpt>
      <trkpt lat="36.4541510" lon="137.5324680">
        <ele>2485.0650000</ele>
        <time>2008-09-12T06:30:51Z</time>
      </trkpt>
      <trkpt lat="36.4542240" lon="137.5327320">
        <ele>2489.1840000</ele>
        <time>2008-09-12T06:31:11Z</time>
      </trkpt>
      <trkpt lat="36.4543620" lon="137.5329340">
        <ele>2490.9260000</ele>
        <time>2008-09-12T06:31:31Z</time>
      </trkpt>
      <trkpt lat="36.4543620" lon="137.5329790">
        <ele>2493.4820000</ele>
        <time>2008-09-12T06:31:51Z</time>
      </trkpt>
      <trkpt lat="36.4544380" lon="137.5330340">
        <ele>2494.7780000</ele>
        <time>2008-09-12T06:32:11Z</time>
      </trkpt>
      <trkpt lat="36.4545660" lon="137.5331010">
        <ele>2499.5010000</ele>
        <time>2008-09-12T06:32:31Z</time>
      </trkpt>
      <trkpt lat="36.4546920" lon="137.5332500">
        <ele>2505.4610000</ele>
        <time>2008-09-12T06:32:51Z</time>
      </trkpt>
      <trkpt lat="36.4548340" lon="137.5333840">
        <ele>2509.2040000</ele>
        <time>2008-09-12T06:33:11Z</time>
      </trkpt>
      <trkpt lat="36.4549500" lon="137.5334170">
        <ele>2510.6530000</ele>
        <time>2008-09-12T06:33:31Z</time>
      </trkpt>
      <trkpt lat="36.4549350" lon="137.5334050">
        <ele>2509.6130000</ele>
        <time>2008-09-12T06:33:51Z</time>
      </trkpt>
      <trkpt lat="36.4549910" lon="137.5334480">
        <ele>2510.3200000</ele>
        <time>2008-09-12T06:34:11Z</time>
      </trkpt>
      <trkpt lat="36.4552550" lon="137.5335120">
        <ele>2510.5970000</ele>
        <time>2008-09-12T06:34:31Z</time>
      </trkpt>
      <trkpt lat="36.4554820" lon="137.5334800">
        <ele>2512.2550000</ele>
        <time>2008-09-12T06:34:51Z</time>
      </trkpt>
      <trkpt lat="36.4557010" lon="137.5335020">
        <ele>2517.2670000</ele>
        <time>2008-09-12T06:35:11Z</time>
      </trkpt>
      <trkpt lat="36.4558380" lon="137.5334440">
        <ele>2520.3450000</ele>
        <time>2008-09-12T06:35:31Z</time>
      </trkpt>
      <trkpt lat="36.4559860" lon="137.5334130">
        <ele>2525.5010000</ele>
        <time>2008-09-12T06:35:51Z</time>
      </trkpt>
      <trkpt lat="36.4561480" lon="137.5334120">
        <ele>2528.9970000</ele>
        <time>2008-09-12T06:36:11Z</time>
      </trkpt>
      <trkpt lat="36.4563030" lon="137.5334300">
        <ele>2533.2520000</ele>
        <time>2008-09-12T06:36:31Z</time>
      </trkpt>
      <trkpt lat="36.4564600" lon="137.5334370">
        <ele>2537.9550000</ele>
        <time>2008-09-12T06:36:51Z</time>
      </trkpt>
      <trkpt lat="36.4566210" lon="137.5334020">
        <ele>2543.2730000</ele>
        <time>2008-09-12T06:37:11Z</time>
      </trkpt>
      <trkpt lat="36.4567850" lon="137.5334390">
        <ele>2547.0430000</ele>
        <time>2008-09-12T06:37:31Z</time>
      </trkpt>
      <trkpt lat="36.4569080" lon="137.5333990">
        <ele>2550.2570000</ele>
        <time>2008-09-12T06:37:51Z</time>
      </trkpt>
      <trkpt lat="36.4570290" lon="137.5334180">
        <ele>2554.4930000</ele>
        <time>2008-09-12T06:38:11Z</time>
      </trkpt>
      <trkpt lat="36.4571060" lon="137.5333620">
        <ele>2557.6530000</ele>
        <time>2008-09-12T06:38:31Z</time>
      </trkpt>
      <trkpt lat="36.4572260" lon="137.5333320">
        <ele>2561.6030000</ele>
        <time>2008-09-12T06:38:51Z</time>
      </trkpt>
      <trkpt lat="36.4573770" lon="137.5333750">
        <ele>2565.7520000</ele>
        <time>2008-09-12T06:39:11Z</time>
      </trkpt>
      <trkpt lat="36.4575100" lon="137.5333790">
        <ele>2569.2300000</ele>
        <time>2008-09-12T06:39:31Z</time>
      </trkpt>
      <trkpt lat="36.4576380" lon="137.5334160">
        <ele>2575.3970000</ele>
        <time>2008-09-12T06:39:51Z</time>
      </trkpt>
      <trkpt lat="36.4577510" lon="137.5333670">
        <ele>2577.4330000</ele>
        <time>2008-09-12T06:40:11Z</time>
      </trkpt>
      <trkpt lat="36.4578460" lon="137.5333130">
        <ele>2582.2520000</ele>
        <time>2008-09-12T06:40:31Z</time>
      </trkpt>
      <trkpt lat="36.4579020" lon="137.5331950">
        <ele>2585.6780000</ele>
        <time>2008-09-12T06:40:51Z</time>
      </trkpt>
      <trkpt lat="36.4580090" lon="137.5332070">
        <ele>2590.9660000</ele>
        <time>2008-09-12T06:41:11Z</time>
      </trkpt>
      <trkpt lat="36.4580710" lon="137.5332520">
        <ele>2594.6340000</ele>
        <time>2008-09-12T06:41:31Z</time>
      </trkpt>
      <trkpt lat="36.4580730" lon="137.5332470">
        <ele>2593.0560000</ele>
        <time>2008-09-12T06:41:51Z</time>
      </trkpt>
      <trkpt lat="36.4581520" lon="137.5332800">
        <ele>2599.6380000</ele>
        <time>2008-09-12T06:42:11Z</time>
      </trkpt>
      <trkpt lat="36.4582340" lon="137.5332510">
        <ele>2602.0990000</ele>
        <time>2008-09-12T06:42:31Z</time>
      </trkpt>
      <trkpt lat="36.4583390" lon="137.5332110">
        <ele>2606.0280000</ele>
        <time>2008-09-12T06:42:51Z</time>
      </trkpt>
      <trkpt lat="36.4584690" lon="137.5332490">
        <ele>2611.4310000</ele>
        <time>2008-09-12T06:43:11Z</time>
      </trkpt>
      <trkpt lat="36.4585920" lon="137.5332510">
        <ele>2614.6480000</ele>
        <time>2008-09-12T06:43:31Z</time>
      </trkpt>
      <trkpt lat="36.4587340" lon="137.5333020">
        <ele>2617.5900000</ele>
        <time>2008-09-12T06:43:51Z</time>
      </trkpt>
      <trkpt lat="36.4588960" lon="137.5334080">
        <ele>2621.7760000</ele>
        <time>2008-09-12T06:44:11Z</time>
      </trkpt>
      <trkpt lat="36.4590490" lon="137.5335430">
        <ele>2626.8270000</ele>
        <time>2008-09-12T06:44:31Z</time>
      </trkpt>
      <trkpt lat="36.4592100" lon="137.5336920">
        <ele>2629.6830000</ele>
        <time>2008-09-12T06:44:51Z</time>
      </trkpt>
      <trkpt lat="36.4593230" lon="137.5338030">
        <ele>2635.0120000</ele>
        <time>2008-09-12T06:45:11Z</time>
      </trkpt>
      <trkpt lat="36.4594310" lon="137.5339220">
        <ele>2638.8960000</ele>
        <time>2008-09-12T06:45:31Z</time>
      </trkpt>
      <trkpt lat="36.4595610" lon="137.5340160">
        <ele>2644.9090000</ele>
        <time>2008-09-12T06:45:51Z</time>
      </trkpt>
      <trkpt lat="36.4597410" lon="137.5341310">
        <ele>2650.5790000</ele>
        <time>2008-09-12T06:46:11Z</time>
      </trkpt>
      <trkpt lat="36.4598610" lon="137.5343500">
        <ele>2654.8070000</ele>
        <time>2008-09-12T06:46:31Z</time>
      </trkpt>
      <trkpt lat="36.4599310" lon="137.5345340">
        <ele>2656.1110000</ele>
        <time>2008-09-12T06:46:51Z</time>
      </trkpt>
      <trkpt lat="36.4600530" lon="137.5346730">
        <ele>2660.7960000</ele>
        <time>2008-09-12T06:47:11Z</time>
      </trkpt>
      <trkpt lat="36.4601390" lon="137.5348680">
        <ele>2663.7200000</ele>
        <time>2008-09-12T06:47:31Z</time>
      </trkpt>
      <trkpt lat="36.4601440" lon="137.5350830">
        <ele>2665.9740000</ele>
        <time>2008-09-12T06:47:51Z</time>
      </trkpt>
      <trkpt lat="36.4602420" lon="137.5353370">
        <ele>2667.4200000</ele>
        <time>2008-09-12T06:48:11Z</time>
      </trkpt>
      <trkpt lat="36.4604070" lon="137.5355280">
        <ele>2669.7080000</ele>
        <time>2008-09-12T06:48:31Z</time>
      </trkpt>
      <trkpt lat="36.4605060" lon="137.5357040">
        <ele>2675.0320000</ele>
        <time>2008-09-12T06:48:51Z</time>
      </trkpt>
      <trkpt lat="36.4605690" lon="137.5358770">
        <ele>2680.2130000</ele>
        <time>2008-09-12T06:49:11Z</time>
      </trkpt>
      <trkpt lat="36.4607380" lon="137.5360900">
        <ele>2681.9160000</ele>
        <time>2008-09-12T06:49:31Z</time>
      </trkpt>
      <trkpt lat="36.4608510" lon="137.5363420">
        <ele>2681.6010000</ele>
        <time>2008-09-12T06:49:51Z</time>
      </trkpt>
      <trkpt lat="36.4609310" lon="137.5365010">
        <ele>2680.9160000</ele>
        <time>2008-09-12T06:50:11Z</time>
      </trkpt>
      <trkpt lat="36.4611480" lon="137.5367640">
        <ele>2682.0090000</ele>
        <time>2008-09-12T06:50:31Z</time>
      </trkpt>
      <trkpt lat="36.4612760" lon="137.5369890">
        <ele>2685.1630000</ele>
        <time>2008-09-12T06:50:51Z</time>
      </trkpt>
      <trkpt lat="36.4613840" lon="137.5371560">
        <ele>2689.8910000</ele>
        <time>2008-09-12T06:51:11Z</time>
      </trkpt>
      <trkpt lat="36.4615230" lon="137.5373560">
        <ele>2691.8190000</ele>
        <time>2008-09-12T06:51:31Z</time>
      </trkpt>
      <trkpt lat="36.4616440" lon="137.5374700">
        <ele>2693.8350000</ele>
        <time>2008-09-12T06:51:51Z</time>
      </trkpt>
      <trkpt lat="36.4616950" lon="137.5376460">
        <ele>2699.0490000</ele>
        <time>2008-09-12T06:52:11Z</time>
      </trkpt>
      <trkpt lat="36.4617570" lon="137.5376810">
        <ele>2704.2940000</ele>
        <time>2008-09-12T06:52:31Z</time>
      </trkpt>
      <trkpt lat="36.4617940" lon="137.5377600">
        <ele>2707.9910000</ele>
        <time>2008-09-12T06:52:51Z</time>
      </trkpt>
      <trkpt lat="36.4618660" lon="137.5377270">
        <ele>2713.7950000</ele>
        <time>2008-09-12T06:53:11Z</time>
      </trkpt>
      <trkpt lat="36.4619700" lon="137.5377970">
        <ele>2716.4110000</ele>
        <time>2008-09-12T06:53:31Z</time>
      </trkpt>
      <trkpt lat="36.4620130" lon="137.5378410">
        <ele>2718.2000000</ele>
        <time>2008-09-12T06:53:51Z</time>
      </trkpt>
      <trkpt lat="36.4620450" lon="137.5379650">
        <ele>2724.3990000</ele>
        <time>2008-09-12T06:54:11Z</time>
      </trkpt>
      <trkpt lat="36.4621530" lon="137.5381550">
        <ele>2726.5430000</ele>
        <time>2008-09-12T06:54:31Z</time>
      </trkpt>
      <trkpt lat="36.4622940" lon="137.5383450">
        <ele>2727.1000000</ele>
        <time>2008-09-12T06:54:51Z</time>
      </trkpt>
      <trkpt lat="36.4624140" lon="137.5384830">
        <ele>2729.7000000</ele>
        <time>2008-09-12T06:55:11Z</time>
      </trkpt>
      <trkpt lat="36.4624800" lon="137.5386190">
        <ele>2733.5120000</ele>
        <time>2008-09-12T06:55:31Z</time>
      </trkpt>
      <trkpt lat="36.4625730" lon="137.5387310">
        <ele>2739.2610000</ele>
        <time>2008-09-12T06:55:51Z</time>
      </trkpt>
      <trkpt lat="36.4626690" lon="137.5388190">
        <ele>2740.5910000</ele>
        <time>2008-09-12T06:56:11Z</time>
      </trkpt>
      <trkpt lat="36.4627260" lon="137.5389600">
        <ele>2745.0980000</ele>
        <time>2008-09-12T06:56:31Z</time>
      </trkpt>
      <trkpt lat="36.4628080" lon="137.5390280">
        <ele>2749.4550000</ele>
        <time>2008-09-12T06:56:51Z</time>
      </trkpt>
      <trkpt lat="36.4628840" lon="137.5391070">
        <ele>2753.8970000</ele>
        <time>2008-09-12T06:57:11Z</time>
      </trkpt>
      <trkpt lat="36.4629420" lon="137.5391810">
        <ele>2758.1610000</ele>
        <time>2008-09-12T06:57:31Z</time>
      </trkpt>
      <trkpt lat="36.4630440" lon="137.5393060">
        <ele>2759.8940000</ele>
        <time>2008-09-12T06:57:51Z</time>
      </trkpt>
      <trkpt lat="36.4630340" lon="137.5394540">
        <ele>2765.3470000</ele>
        <time>2008-09-12T06:58:11Z</time>
      </trkpt>
      <trkpt lat="36.4631580" lon="137.5396080">
        <ele>2769.8190000</ele>
        <time>2008-09-12T06:58:31Z</time>
      </trkpt>
      <trkpt lat="36.4631990" lon="137.5397640">
        <ele>2772.8040000</ele>
        <time>2008-09-12T06:58:51Z</time>
      </trkpt>
      <trkpt lat="36.4632820" lon="137.5398980">
        <ele>2776.6790000</ele>
        <time>2008-09-12T06:59:11Z</time>
      </trkpt>
      <trkpt lat="36.4633380" lon="137.5400860">
        <ele>2781.4920000</ele>
        <time>2008-09-12T06:59:31Z</time>
      </trkpt>
      <trkpt lat="36.4634470" lon="137.5402380">
        <ele>2784.8770000</ele>
        <time>2008-09-12T06:59:51Z</time>
      </trkpt>
      <trkpt lat="36.4635100" lon="137.5404620">
        <ele>2788.6510000</ele>
        <time>2008-09-12T07:00:11Z</time>
      </trkpt>
      <trkpt lat="36.4635990" lon="137.5406040">
        <ele>2792.9760000</ele>
        <time>2008-09-12T07:00:31Z</time>
      </trkpt>
      <trkpt lat="36.4637020" lon="137.5406950">
        <ele>2797.1040000</ele>
        <time>2008-09-12T07:00:51Z</time>
      </trkpt>
      <trkpt lat="36.4637470" lon="137.5408720">
        <ele>2801.3190000</ele>
        <time>2008-09-12T07:01:11Z</time>
      </trkpt>
      <trkpt lat="36.4637910" lon="137.5410160">
        <ele>2804.5000000</ele>
        <time>2008-09-12T07:01:31Z</time>
      </trkpt>
      <trkpt lat="36.4638150" lon="137.5411780">
        <ele>2808.4930000</ele>
        <time>2008-09-12T07:01:51Z</time>
      </trkpt>
      <trkpt lat="36.4639370" lon="137.5412760">
        <ele>2813.2430000</ele>
        <time>2008-09-12T07:02:11Z</time>
      </trkpt>
      <trkpt lat="36.4640150" lon="137.5413460">
        <ele>2817.6970000</ele>
        <time>2008-09-12T07:02:31Z</time>
      </trkpt>
      <trkpt lat="36.4640950" lon="137.5414400">
        <ele>2821.2640000</ele>
        <time>2008-09-12T07:02:51Z</time>
      </trkpt>
      <trkpt lat="36.4640760" lon="137.5415560">
        <ele>2825.4870000</ele>
        <time>2008-09-12T07:03:11Z</time>
      </trkpt>
      <trkpt lat="36.4641100" lon="137.5416700">
        <ele>2828.3800000</ele>
        <time>2008-09-12T07:03:31Z</time>
      </trkpt>
      <trkpt lat="36.4642090" lon="137.5417370">
        <ele>2831.2600000</ele>
        <time>2008-09-12T07:03:51Z</time>
      </trkpt>
      <trkpt lat="36.4642850" lon="137.5418140">
        <ele>2837.8670000</ele>
        <time>2008-09-12T07:04:11Z</time>
      </trkpt>
      <trkpt lat="36.4642980" lon="137.5419210">
        <ele>2841.6400000</ele>
        <time>2008-09-12T07:04:31Z</time>
      </trkpt>
      <trkpt lat="36.4642550" lon="137.5420580">
        <ele>2844.7300000</ele>
        <time>2008-09-12T07:04:51Z</time>
      </trkpt>
      <trkpt lat="36.4643320" lon="137.5421240">
        <ele>2848.9890000</ele>
        <time>2008-09-12T07:05:11Z</time>
      </trkpt>
      <trkpt lat="36.4643930" lon="137.5422030">
        <ele>2855.4010000</ele>
        <time>2008-09-12T07:05:31Z</time>
      </trkpt>
      <trkpt lat="36.4644200" lon="137.5422780">
        <ele>2859.4970000</ele>
        <time>2008-09-12T07:05:51Z</time>
      </trkpt>
      <trkpt lat="36.4644770" lon="137.5423300">
        <ele>2865.5560000</ele>
        <time>2008-09-12T07:06:11Z</time>
      </trkpt>
      <trkpt lat="36.4645520" lon="137.5424150">
        <ele>2868.4160000</ele>
        <time>2008-09-12T07:06:31Z</time>
      </trkpt>
      <trkpt lat="36.4645750" lon="137.5425610">
        <ele>2870.6960000</ele>
        <time>2008-09-12T07:06:51Z</time>
      </trkpt>
      <trkpt lat="36.4646910" lon="137.5426050">
        <ele>2871.6440000</ele>
        <time>2008-09-12T07:07:11Z</time>
      </trkpt>
      <trkpt lat="36.4646880" lon="137.5426030">
        <ele>2872.7140000</ele>
        <time>2008-09-12T07:07:31Z</time>
      </trkpt>
      <trkpt lat="36.4646780" lon="137.5425980">
        <ele>2872.4790000</ele>
        <time>2008-09-12T07:07:51Z</time>
      </trkpt>
      <trkpt lat="36.4648360" lon="137.5427410">
        <ele>2874.8300000</ele>
        <time>2008-09-12T07:08:11Z</time>
      </trkpt>
      <trkpt lat="36.4652000" lon="137.5430270">
        <ele>2874.9530000</ele>
        <time>2008-09-12T07:08:31Z</time>
      </trkpt>
      <trkpt lat="36.4653990" lon="137.5432050">
        <ele>2876.1780000</ele>
        <time>2008-09-12T07:08:51Z</time>
      </trkpt>
      <trkpt lat="36.4656070" lon="137.5432650">
        <ele>2876.1470000</ele>
        <time>2008-09-12T07:09:11Z</time>
      </trkpt>
      <trkpt lat="36.4658250" lon="137.5434130">
        <ele>2875.4460000</ele>
        <time>2008-09-12T07:09:31Z</time>
      </trkpt>
      <trkpt lat="36.4661240" lon="137.5436130">
        <ele>2876.9660000</ele>
        <time>2008-09-12T07:09:51Z</time>
      </trkpt>
      <trkpt lat="36.4663480" lon="137.5437060">
        <ele>2878.6880000</ele>
        <time>2008-09-12T07:10:11Z</time>
      </trkpt>
      <trkpt lat="36.4665230" lon="137.5438230">
        <ele>2880.3240000</ele>
        <time>2008-09-12T07:10:31Z</time>
      </trkpt>
      <trkpt lat="36.4667120" lon="137.5439520">
        <ele>2884.3810000</ele>
        <time>2008-09-12T07:10:51Z</time>
      </trkpt>
      <trkpt lat="36.4668940" lon="137.5441140">
        <ele>2883.5990000</ele>
        <time>2008-09-12T07:11:11Z</time>
      </trkpt>
      <trkpt lat="36.4670900" lon="137.5442570">
        <ele>2886.7990000</ele>
        <time>2008-09-12T07:11:31Z</time>
      </trkpt>
      <trkpt lat="36.4672110" lon="137.5442860">
        <ele>2889.2310000</ele>
        <time>2008-09-12T07:11:51Z</time>
      </trkpt>
      <trkpt lat="36.4672100" lon="137.5442770">
        <ele>2888.1080000</ele>
        <time>2008-09-12T07:12:11Z</time>
      </trkpt>
      <trkpt lat="36.4672060" lon="137.5442650">
        <ele>2890.5250000</ele>
        <time>2008-09-12T07:12:31Z</time>
      </trkpt>
      <trkpt lat="36.4672070" lon="137.5442630">
        <ele>2889.6250000</ele>
        <time>2008-09-12T07:12:51Z</time>
      </trkpt>
      <trkpt lat="36.4672230" lon="137.5442720">
        <ele>2890.1190000</ele>
        <time>2008-09-12T07:13:11Z</time>
      </trkpt>
      <trkpt lat="36.4674880" lon="137.5443760">
        <ele>2894.9210000</ele>
        <time>2008-09-12T07:13:31Z</time>
      </trkpt>
      <trkpt lat="36.4676750" lon="137.5444320">
        <ele>2898.6350000</ele>
        <time>2008-09-12T07:13:51Z</time>
      </trkpt>
      <trkpt lat="36.4678260" lon="137.5445540">
        <ele>2902.0840000</ele>
        <time>2008-09-12T07:14:11Z</time>
      </trkpt>
      <trkpt lat="36.4680280" lon="137.5446500">
        <ele>2905.0290000</ele>
        <time>2008-09-12T07:14:31Z</time>
      </trkpt>
      <trkpt lat="36.4682160" lon="137.5447420">
        <ele>2909.2040000</ele>
        <time>2008-09-12T07:14:51Z</time>
      </trkpt>
      <trkpt lat="36.4684760" lon="137.5447530">
        <ele>2909.9610000</ele>
        <time>2008-09-12T07:15:11Z</time>
      </trkpt>
      <trkpt lat="36.4687090" lon="137.5447740">
        <ele>2912.2610000</ele>
        <time>2008-09-12T07:15:31Z</time>
      </trkpt>
      <trkpt lat="36.4687960" lon="137.5447800">
        <ele>2914.2180000</ele>
        <time>2008-09-12T07:15:44Z</time>
      </trkpt>
    </trkseg>
  </trk>

</gpx>
